CPA69 VHHH-OMDW
Flight info
| Callsign | CPA69 |
|---|---|
| Flight time | 7h 43m |
| Altitude | 32000 |
| Route | PECAN V10 SIKOU/K0930S0920 A202 AGPOR/K0930S0980 A202 ASSAD/K0930F320 A206 NALAO/N0502F320 A206 LPB B465 CEA A791 ARIVO/N0494F340 A791 BPL L639 RASKI L301 RAGMA N571 VUSET A454 PASOV M564 VAXAS/N0439F240 M564 UMAMI |
| Aircraft | B748/H-SDE3FGHIM1M2RWXY/LB1 |
Departure
| Time | 2026-04-21 08:50 |
|---|---|
| Airport | Hong Kong International Airport (VHHH) |
Arrival
| Time | 2026-04-21 16:33 |
|---|---|
| Airport | Al Maktoum International Airport (OMDW) |
| Time | Latitude | Longitude | Altitude | Speed | Heading |
|---|---|---|---|---|---|
| 2026-04-21 08:14 | 22.29970 | 113.92423 | 43 ft | 0 kts | 161° |
| 2026-04-21 08:37 | 22.29979 | 113.92419 | 42 ft | 2 kts | 160° |
| 2026-04-21 08:38 | 22.29995 | 113.92414 | 42 ft | 2 kts | 162° |
| 2026-04-21 08:38 | 22.30011 | 113.92408 | 39 ft | 2 kts | 161° |
| 2026-04-21 08:38 | 22.30023 | 113.92398 | 41 ft | 2 kts | 116° |
| 2026-04-21 08:38 | 22.30030 | 113.92381 | 39 ft | 2 kts | 108° |
| 2026-04-21 08:39 | 22.30035 | 113.92364 | 42 ft | 2 kts | 101° |
| 2026-04-21 08:39 | 22.30037 | 113.92346 | 43 ft | 2 kts | 93° |
| 2026-04-21 08:39 | 22.30037 | 113.92332 | 43 ft | 1 kts | 77° |
| 2026-04-21 08:39 | 22.30036 | 113.92331 | 42 ft | 0 kts | 75° |
| 2026-04-21 08:42 | 22.30041 | 113.92347 | 43 ft | 4 kts | 71° |
| 2026-04-21 08:43 | 22.30056 | 113.92392 | 43 ft | 9 kts | 70° |
| 2026-04-21 08:43 | 22.30082 | 113.92469 | 43 ft | 13 kts | 70° |
| 2026-04-21 08:43 | 22.30118 | 113.92581 | 43 ft | 18 kts | 71° |
| 2026-04-21 08:43 | 22.30152 | 113.92688 | 43 ft | 11 kts | 71° |
| 2026-04-21 08:44 | 22.30180 | 113.92745 | 43 ft | 4 kts | 37° |
| 2026-04-21 08:44 | 22.30201 | 113.92749 | 43 ft | 1 kts | 359° |
| 2026-04-21 08:44 | 22.30229 | 113.92737 | 43 ft | 7 kts | 338° |
| 2026-04-21 08:44 | 22.30284 | 113.92715 | 43 ft | 9 kts | 339° |
| 2026-04-21 08:45 | 22.30345 | 113.92694 | 43 ft | 3 kts | 0° |
| 2026-04-21 08:45 | 22.30356 | 113.92702 | 43 ft | 4 kts | 34° |
| 2026-04-21 08:45 | 22.30390 | 113.92745 | 43 ft | 11 kts | 58° |
| 2026-04-21 08:45 | 22.30422 | 113.92842 | 43 ft | 15 kts | 71° |
| 2026-04-21 08:46 | 22.30455 | 113.92949 | 42 ft | 15 kts | 71° |
| 2026-04-21 08:46 | 22.30487 | 113.93046 | 42 ft | 13 kts | 70° |
| 2026-04-21 08:46 | 22.30516 | 113.93136 | 43 ft | 12 kts | 71° |
| 2026-04-21 08:46 | 22.30542 | 113.93217 | 43 ft | 11 kts | 69° |
| 2026-04-21 08:47 | 22.30576 | 113.93282 | 43 ft | 9 kts | 46° |
| 2026-04-21 08:47 | 22.30617 | 113.93302 | 42 ft | 5 kts | 7° |
| 2026-04-21 08:47 | 22.30649 | 113.93299 | 42 ft | 5 kts | 349° |
| 2026-04-21 08:47 | 22.30696 | 113.93283 | 41 ft | 9 kts | 341° |
| 2026-04-21 08:48 | 22.30731 | 113.93259 | 41 ft | 2 kts | 299° |
| 2026-04-21 08:48 | 22.30731 | 113.93243 | 41 ft | 4 kts | 270° |
| 2026-04-21 08:48 | 22.30725 | 113.93217 | 41 ft | 0 kts | 251° |
| 2026-04-21 08:48 | 22.30725 | 113.93216 | 41 ft | 1 kts | 251° |
| 2026-04-21 08:49 | 22.30681 | 113.93077 | 41 ft | 50 kts | 250° |
| 2026-04-21 08:49 | 22.30491 | 113.92493 | 44 ft | 112 kts | 251° |
| 2026-04-21 08:49 | 22.30174 | 113.91521 | 42 ft | 159 kts | 250° |
| 2026-04-21 08:49 | 22.29792 | 113.90292 | 312 ft | 176 kts | 249° |
| 2026-04-21 08:50 | 22.29402 | 113.89082 | 937 ft | 173 kts | 248° |
| 2026-04-21 08:50 | 22.28984 | 113.87796 | 1165 ft | 188 kts | 247° |
| 2026-04-21 08:50 | 22.28539 | 113.86474 | 1543 ft | 194 kts | 242° |
| 2026-04-21 08:50 | 22.27734 | 113.85180 | 1643 ft | 218 kts | 233° |
| 2026-04-21 08:51 | 22.26895 | 113.83882 | 2495 ft | 201 kts | 233° |
| 2026-04-21 08:51 | 22.26086 | 113.82612 | 2953 ft | 212 kts | 231° |
| 2026-04-21 08:51 | 22.24921 | 113.81546 | 3005 ft | 231 kts | 197° |
| 2026-04-21 08:51 | 22.23383 | 113.81257 | 3677 ft | 224 kts | 184° |
| 2026-04-21 08:52 | 22.21793 | 113.81200 | 4121 ft | 229 kts | 181° |
| 2026-04-21 08:52 | 22.20208 | 113.81363 | 4642 ft | 233 kts | 161° |
| 2026-04-21 08:52 | 22.18785 | 113.82234 | 5081 ft | 241 kts | 138° |
| 2026-04-21 08:52 | 22.17636 | 113.83582 | 5672 ft | 246 kts | 135° |
| 2026-04-21 08:53 | 22.16492 | 113.84975 | 6369 ft | 251 kts | 131° |
| 2026-04-21 08:53 | 22.15910 | 113.86061 | 6741 ft | 258 kts | 115° |
| 2026-04-21 08:53 | 22.15229 | 113.87883 | 7345 ft | 264 kts | 115° |
| 2026-04-21 08:53 | 22.14546 | 113.89727 | 7996 ft | 268 kts | 116° |
| 2026-04-21 08:54 | 22.13684 | 113.92262 | 8785 ft | 277 kts | 101° |
| 2026-04-21 08:54 | 22.13431 | 113.94411 | 8994 ft | 302 kts | 97° |
| 2026-04-21 08:54 | 22.13284 | 113.96695 | 9603 ft | 306 kts | 96° |
| 2026-04-21 08:54 | 22.13175 | 113.98227 | 10008 ft | 310 kts | 97° |
| 2026-04-21 08:55 | 22.12952 | 114.00630 | 10260 ft | 330 kts | 98° |
| 2026-04-21 08:55 | 22.12714 | 114.03016 | 10325 ft | 354 kts | 98° |
| 2026-04-21 08:55 | 22.12474 | 114.05595 | 10433 ft | 375 kts | 99° |
| 2026-04-21 08:55 | 22.11999 | 114.08356 | 11097 ft | 376 kts | 103° |
| 2026-04-21 08:56 | 22.11554 | 114.11169 | 11670 ft | 382 kts | 101° |
| 2026-04-21 08:56 | 22.11112 | 114.14001 | 12278 ft | 386 kts | 103° |
| 2026-04-21 08:56 | 22.10316 | 114.16756 | 12885 ft | 385 kts | 120° |
| 2026-04-21 08:56 | 22.08787 | 114.19118 | 13462 ft | 383 kts | 139° |
| 2026-04-21 08:57 | 22.06674 | 114.20857 | 13964 ft | 382 kts | 155° |
| 2026-04-21 08:57 | 22.04194 | 114.21875 | 14020 ft | 382 kts | 173° |
| 2026-04-21 08:57 | 22.01592 | 114.22016 | 14671 ft | 372 kts | 186° |
| 2026-04-21 08:57 | 21.98988 | 114.21751 | 15123 ft | 377 kts | 189° |
| 2026-04-21 08:58 | 21.96357 | 114.21451 | 15618 ft | 382 kts | 187° |
| 2026-04-21 08:58 | 21.93686 | 114.21362 | 16105 ft | 388 kts | 182° |
| 2026-04-21 08:58 | 21.91008 | 114.21408 | 16566 ft | 392 kts | 182° |
| 2026-04-21 08:58 | 21.88283 | 114.21254 | 17025 ft | 392 kts | 194° |
| 2026-04-21 08:59 | 21.85720 | 114.20382 | 17480 ft | 391 kts | 208° |
| 2026-04-21 08:59 | 21.83280 | 114.19055 | 17911 ft | 395 kts | 210° |
| 2026-04-21 08:59 | 21.80832 | 114.17686 | 18360 ft | 398 kts | 210° |
| 2026-04-21 08:59 | 21.78357 | 114.16333 | 18750 ft | 402 kts | 209° |
| 2026-04-21 09:00 | 21.75840 | 114.14981 | 19162 ft | 404 kts | 209° |
| 2026-04-21 09:00 | 21.73320 | 114.13615 | 19571 ft | 407 kts | 209° |
| 2026-04-21 09:00 | 21.70791 | 114.12232 | 19953 ft | 410 kts | 209° |
| 2026-04-21 09:00 | 21.68225 | 114.10833 | 20351 ft | 413 kts | 209° |
| 2026-04-21 09:01 | 21.65645 | 114.09439 | 20730 ft | 416 kts | 207° |
| 2026-04-21 09:01 | 21.62899 | 114.08406 | 21107 ft | 422 kts | 197° |
| 2026-04-21 09:01 | 21.60037 | 114.07658 | 21428 ft | 426 kts | 195° |
| 2026-04-21 09:01 | 21.57131 | 114.06920 | 21808 ft | 429 kts | 195° |
| 2026-04-21 09:02 | 21.54254 | 114.06180 | 22154 ft | 431 kts | 196° |
| 2026-04-21 09:02 | 21.51320 | 114.05413 | 22512 ft | 434 kts | 196° |
| 2026-04-21 09:02 | 21.48380 | 114.04647 | 22857 ft | 437 kts | 196° |
| 2026-04-21 09:03 | 21.42631 | 114.02553 | 23510 ft | 437 kts | 213° |
| 2026-04-21 09:03 | 21.40077 | 114.00796 | 23777 ft | 438 kts | 216° |
| 2026-04-21 09:03 | 21.37558 | 113.99009 | 24067 ft | 439 kts | 216° |
| 2026-04-21 09:03 | 21.35003 | 113.97194 | 24362 ft | 441 kts | 216° |
| 2026-04-21 09:04 | 21.32428 | 113.95375 | 24636 ft | 443 kts | 216° |
| 2026-04-21 09:04 | 21.29849 | 113.93557 | 24920 ft | 444 kts | 216° |
| 2026-04-21 09:04 | 21.27268 | 113.91734 | 25196 ft | 446 kts | 216° |
| 2026-04-21 09:04 | 21.24666 | 113.89893 | 25476 ft | 448 kts | 216° |
| 2026-04-21 09:05 | 21.22058 | 113.88052 | 25752 ft | 450 kts | 216° |
| 2026-04-21 09:05 | 21.19433 | 113.86202 | 26039 ft | 452 kts | 216° |
| 2026-04-21 09:05 | 21.16814 | 113.84355 | 26314 ft | 453 kts | 216° |
| 2026-04-21 09:05 | 21.14164 | 113.82487 | 26588 ft | 455 kts | 216° |
| 2026-04-21 09:06 | 21.11598 | 113.80513 | 26866 ft | 454 kts | 225° |
| 2026-04-21 09:06 | 21.09429 | 113.78072 | 27131 ft | 452 kts | 235° |
| 2026-04-21 09:06 | 21.07743 | 113.75254 | 27408 ft | 450 kts | 246° |
| 2026-04-21 09:06 | 21.06556 | 113.72137 | 27686 ft | 450 kts | 252° |
| 2026-04-21 09:07 | 21.05523 | 113.68969 | 27962 ft | 452 kts | 252° |
| 2026-04-21 09:07 | 21.04499 | 113.65787 | 28260 ft | 454 kts | 252° |
| 2026-04-21 09:07 | 21.03469 | 113.62589 | 28564 ft | 455 kts | 252° |
| 2026-04-21 09:07 | 21.02441 | 113.59426 | 28874 ft | 457 kts | 252° |
| 2026-04-21 09:08 | 21.01392 | 113.56204 | 29176 ft | 459 kts | 252° |
| 2026-04-21 09:08 | 21.00329 | 113.52927 | 29507 ft | 461 kts | 252° |
| 2026-04-21 09:08 | 20.99279 | 113.49686 | 29851 ft | 463 kts | 252° |
| 2026-04-21 09:08 | 20.98231 | 113.46465 | 30137 ft | 465 kts | 252° |
| 2026-04-21 09:09 | 20.97165 | 113.43192 | 30413 ft | 466 kts | 252° |
| 2026-04-21 09:09 | 20.96097 | 113.39910 | 30708 ft | 468 kts | 252° |
| 2026-04-21 09:09 | 20.95021 | 113.36607 | 30988 ft | 470 kts | 252° |
| 2026-04-21 09:09 | 20.93938 | 113.33286 | 31272 ft | 472 kts | 252° |
| 2026-04-21 09:10 | 20.92859 | 113.29978 | 31566 ft | 474 kts | 252° |
| 2026-04-21 09:10 | 20.91767 | 113.26634 | 31843 ft | 477 kts | 252° |
| 2026-04-21 09:10 | 20.89564 | 113.19896 | 31857 ft | 480 kts | 252° |
| 2026-04-21 09:11 | 20.87361 | 113.13169 | 31853 ft | 478 kts | 252° |
| 2026-04-21 09:11 | 20.85161 | 113.06457 | 31851 ft | 478 kts | 252° |
| 2026-04-21 09:12 | 20.82968 | 112.99778 | 31849 ft | 478 kts | 252° |
| 2026-04-21 09:12 | 20.80762 | 112.93071 | 31851 ft | 478 kts | 252° |
| 2026-04-21 09:13 | 20.78558 | 112.86377 | 31851 ft | 478 kts | 252° |
| 2026-04-21 09:13 | 20.76345 | 112.79668 | 31849 ft | 478 kts | 252° |
| 2026-04-21 09:14 | 20.74129 | 112.72959 | 31849 ft | 478 kts | 252° |
| 2026-04-21 09:14 | 20.71911 | 112.66253 | 31849 ft | 479 kts | 252° |
| 2026-04-21 09:15 | 20.69692 | 112.59554 | 31848 ft | 479 kts | 252° |
| 2026-04-21 09:15 | 20.67480 | 112.52888 | 31844 ft | 479 kts | 252° |
| 2026-04-21 09:16 | 20.65248 | 112.46167 | 31843 ft | 480 kts | 252° |
| 2026-04-21 09:16 | 20.63016 | 112.39460 | 31841 ft | 479 kts | 252° |
| 2026-04-21 09:17 | 20.60786 | 112.32768 | 31839 ft | 479 kts | 252° |
| 2026-04-21 09:17 | 20.58549 | 112.26063 | 31836 ft | 479 kts | 252° |
| 2026-04-21 09:18 | 20.56719 | 112.19251 | 31861 ft | 477 kts | 264° |
| 2026-04-21 09:18 | 20.56965 | 112.12235 | 31865 ft | 476 kts | 283° |
| 2026-04-21 09:19 | 20.59320 | 112.05618 | 31851 ft | 477 kts | 295° |
| 2026-04-21 09:19 | 20.62182 | 111.99277 | 31852 ft | 477 kts | 295° |
| 2026-04-21 09:20 | 20.65063 | 111.92900 | 31848 ft | 476 kts | 295° |
| 2026-04-21 09:20 | 20.67933 | 111.86528 | 31849 ft | 476 kts | 295° |
| 2026-04-21 09:21 | 20.70802 | 111.80161 | 31841 ft | 476 kts | 295° |
| 2026-04-21 09:21 | 20.73668 | 111.73785 | 31842 ft | 476 kts | 295° |
| 2026-04-21 09:22 | 20.76539 | 111.67394 | 31838 ft | 477 kts | 295° |
| 2026-04-21 09:22 | 20.79409 | 111.60996 | 31838 ft | 477 kts | 295° |
| 2026-04-21 09:23 | 20.82003 | 111.54536 | 31850 ft | 476 kts | 284° |
| 2026-04-21 09:23 | 20.82702 | 111.47534 | 31843 ft | 477 kts | 266° |
| 2026-04-21 09:24 | 20.81194 | 111.40633 | 31841 ft | 481 kts | 252° |
| 2026-04-21 09:24 | 20.78942 | 111.33902 | 31835 ft | 481 kts | 252° |
| 2026-04-21 09:25 | 20.76673 | 111.27160 | 31831 ft | 480 kts | 252° |
| 2026-04-21 09:25 | 20.74414 | 111.20434 | 31828 ft | 480 kts | 251° |
| 2026-04-21 09:26 | 20.72159 | 111.13747 | 31827 ft | 481 kts | 251° |
| 2026-04-21 09:26 | 20.69886 | 111.07005 | 31823 ft | 482 kts | 251° |
| 2026-04-21 09:27 | 20.67614 | 111.00282 | 31821 ft | 482 kts | 251° |
| 2026-04-21 09:27 | 20.65334 | 110.93543 | 31817 ft | 483 kts | 251° |
| 2026-04-21 09:28 | 20.63057 | 110.86801 | 31812 ft | 483 kts | 252° |
| 2026-04-21 09:28 | 20.60802 | 110.80052 | 31806 ft | 483 kts | 251° |
| 2026-04-21 09:29 | 20.58539 | 110.73340 | 31805 ft | 483 kts | 251° |
| 2026-04-21 09:29 | 20.56272 | 110.66596 | 31801 ft | 483 kts | 251° |
| 2026-04-21 09:30 | 20.53999 | 110.59861 | 31796 ft | 482 kts | 251° |
| 2026-04-21 09:30 | 20.51724 | 110.53121 | 31792 ft | 482 kts | 251° |
| 2026-04-21 09:31 | 20.48514 | 110.46903 | 31826 ft | 487 kts | 233° |
| 2026-04-21 09:31 | 20.44230 | 110.41278 | 31794 ft | 488 kts | 233° |
| 2026-04-21 09:32 | 20.39939 | 110.35672 | 31793 ft | 488 kts | 233° |
| 2026-04-21 09:32 | 20.35655 | 110.30058 | 31794 ft | 489 kts | 233° |
| 2026-04-21 09:33 | 20.31356 | 110.24450 | 31782 ft | 489 kts | 233° |
| 2026-04-21 09:33 | 20.27084 | 110.18799 | 31788 ft | 489 kts | 234° |
| 2026-04-21 09:34 | 20.22873 | 110.13136 | 31782 ft | 489 kts | 233° |
| 2026-04-21 09:34 | 20.18634 | 110.07513 | 31779 ft | 489 kts | 234° |
| 2026-04-21 09:35 | 20.14396 | 110.01851 | 31778 ft | 489 kts | 234° |
| 2026-04-21 09:35 | 20.10151 | 109.96213 | 31776 ft | 488 kts | 234° |
| 2026-04-21 09:36 | 20.05900 | 109.90556 | 31772 ft | 489 kts | 234° |
| 2026-04-21 09:36 | 20.01644 | 109.84906 | 31769 ft | 490 kts | 234° |
| 2026-04-21 09:37 | 19.97377 | 109.79244 | 31768 ft | 489 kts | 234° |
| 2026-04-21 09:37 | 19.93147 | 109.73637 | 31766 ft | 490 kts | 234° |
| 2026-04-21 09:38 | 19.88876 | 109.67981 | 31786 ft | 490 kts | 234° |
| 2026-04-21 09:38 | 19.84603 | 109.62328 | 31786 ft | 491 kts | 233° |
| 2026-04-21 09:39 | 19.80330 | 109.56680 | 31786 ft | 491 kts | 233° |
| 2026-04-21 09:39 | 19.76034 | 109.51009 | 31789 ft | 491 kts | 233° |
| 2026-04-21 09:40 | 19.71751 | 109.45358 | 31793 ft | 492 kts | 233° |
| 2026-04-21 09:40 | 19.67449 | 109.39688 | 31795 ft | 493 kts | 233° |
| 2026-04-21 09:41 | 19.63145 | 109.34021 | 31792 ft | 494 kts | 233° |
| 2026-04-21 09:41 | 19.58857 | 109.28380 | 31795 ft | 493 kts | 233° |
| 2026-04-21 09:42 | 19.54543 | 109.22711 | 31792 ft | 494 kts | 233° |
| 2026-04-21 09:42 | 19.50223 | 109.17046 | 31792 ft | 494 kts | 233° |
| 2026-04-21 09:43 | 19.46589 | 109.12353 | 31793 ft | 494 kts | 233° |
| 2026-04-21 09:43 | 19.41524 | 109.05775 | 31795 ft | 495 kts | 233° |
| 2026-04-21 09:44 | 19.37880 | 109.01059 | 31795 ft | 495 kts | 233° |
| 2026-04-21 09:44 | 19.33510 | 108.95402 | 31794 ft | 495 kts | 233° |
| 2026-04-21 09:45 | 19.29178 | 108.89800 | 31793 ft | 495 kts | 233° |
| 2026-04-21 09:45 | 19.24798 | 108.84143 | 31790 ft | 495 kts | 233° |
| 2026-04-21 09:46 | 19.20434 | 108.78507 | 31793 ft | 495 kts | 233° |
| 2026-04-21 09:46 | 19.16059 | 108.72865 | 31792 ft | 495 kts | 233° |
| 2026-04-21 09:47 | 19.11696 | 108.67240 | 31787 ft | 495 kts | 233° |
| 2026-04-21 09:47 | 19.07353 | 108.61650 | 31790 ft | 494 kts | 233° |
| 2026-04-21 09:48 | 19.02976 | 108.56019 | 31785 ft | 494 kts | 233° |
| 2026-04-21 09:48 | 18.98615 | 108.50413 | 31790 ft | 493 kts | 233° |
| 2026-04-21 09:49 | 18.94257 | 108.44820 | 31788 ft | 493 kts | 233° |
| 2026-04-21 09:49 | 18.89893 | 108.39219 | 31790 ft | 493 kts | 233° |
| 2026-04-21 09:50 | 18.86264 | 108.34566 | 31788 ft | 493 kts | 233° |
| 2026-04-21 09:50 | 18.81154 | 108.28024 | 31784 ft | 494 kts | 233° |
| 2026-04-21 09:51 | 18.76811 | 108.22466 | 31787 ft | 494 kts | 233° |
| 2026-04-21 09:51 | 18.72438 | 108.16878 | 31786 ft | 494 kts | 233° |
| 2026-04-21 09:52 | 18.68061 | 108.11287 | 31785 ft | 494 kts | 233° |
| 2026-04-21 09:52 | 18.63684 | 108.05701 | 31786 ft | 494 kts | 233° |
| 2026-04-21 09:53 | 18.59308 | 108.00123 | 31786 ft | 495 kts | 233° |
| 2026-04-21 09:53 | 18.54908 | 107.94519 | 31782 ft | 495 kts | 233° |
| 2026-04-21 09:54 | 18.50511 | 107.88924 | 31779 ft | 496 kts | 233° |
| 2026-04-21 09:54 | 18.46135 | 107.83359 | 31781 ft | 496 kts | 233° |
| 2026-04-21 09:55 | 18.41729 | 107.77763 | 31783 ft | 497 kts | 233° |
| 2026-04-21 09:55 | 18.37738 | 107.71880 | 31803 ft | 492 kts | 247° |
| 2026-04-21 09:56 | 18.35810 | 107.65061 | 31805 ft | 484 kts | 267° |
| 2026-04-21 09:56 | 18.36191 | 107.58057 | 31803 ft | 479 kts | 283° |
| 2026-04-21 09:57 | 18.37543 | 107.51204 | 31790 ft | 479 kts | 283° |
| 2026-04-21 09:57 | 18.38916 | 107.44336 | 31786 ft | 478 kts | 283° |
| 2026-04-21 09:58 | 18.40268 | 107.37483 | 31779 ft | 478 kts | 283° |
| 2026-04-21 09:58 | 18.41620 | 107.30670 | 31781 ft | 477 kts | 283° |
| 2026-04-21 09:59 | 18.42968 | 107.23831 | 31780 ft | 477 kts | 283° |
| 2026-04-21 09:59 | 18.44315 | 107.17004 | 31777 ft | 476 kts | 283° |
| 2026-04-21 10:00 | 18.45660 | 107.10162 | 31775 ft | 476 kts | 283° |
| 2026-04-21 10:00 | 18.47000 | 107.03333 | 31772 ft | 476 kts | 283° |
| 2026-04-21 10:01 | 18.48328 | 106.96544 | 31772 ft | 476 kts | 283° |
| 2026-04-21 10:01 | 18.49662 | 106.89710 | 31774 ft | 476 kts | 283° |
| 2026-04-21 10:02 | 18.51656 | 106.79468 | 31765 ft | 475 kts | 283° |
| 2026-04-21 10:03 | 18.52979 | 106.72657 | 31766 ft | 475 kts | 283° |
| 2026-04-21 10:03 | 18.54300 | 106.65843 | 31759 ft | 474 kts | 283° |
| 2026-04-21 10:04 | 18.55619 | 106.59025 | 31762 ft | 473 kts | 283° |
| 2026-04-21 10:04 | 18.56942 | 106.52276 | 31762 ft | 473 kts | 283° |
| 2026-04-21 10:05 | 18.58274 | 106.45487 | 31762 ft | 473 kts | 283° |
| 2026-04-21 10:05 | 18.59600 | 106.38688 | 31761 ft | 473 kts | 283° |
| 2026-04-21 10:06 | 18.60930 | 106.31881 | 31757 ft | 473 kts | 283° |
| 2026-04-21 10:06 | 18.62243 | 106.25129 | 31757 ft | 473 kts | 283° |
| 2026-04-21 10:07 | 18.63565 | 106.18334 | 31758 ft | 473 kts | 283° |
| 2026-04-21 10:07 | 18.64883 | 106.11530 | 31751 ft | 472 kts | 283° |
| 2026-04-21 10:08 | 18.66193 | 106.04733 | 31752 ft | 472 kts | 283° |
| 2026-04-21 10:08 | 18.67488 | 105.97946 | 31757 ft | 473 kts | 283° |
| 2026-04-21 10:09 | 18.68791 | 105.91143 | 31753 ft | 472 kts | 283° |
| 2026-04-21 10:09 | 18.70080 | 105.84375 | 31750 ft | 471 kts | 283° |
| 2026-04-21 10:10 | 18.71365 | 105.77626 | 31749 ft | 471 kts | 283° |
| 2026-04-21 10:10 | 18.72657 | 105.70821 | 31748 ft | 470 kts | 283° |
| 2026-04-21 10:11 | 18.74328 | 105.64173 | 31747 ft | 469 kts | 291° |
| 2026-04-21 10:11 | 18.76564 | 105.57689 | 31748 ft | 469 kts | 291° |
| 2026-04-21 10:12 | 18.78771 | 105.51263 | 31742 ft | 468 kts | 290° |
| 2026-04-21 10:12 | 18.80994 | 105.44791 | 31749 ft | 468 kts | 291° |
| 2026-04-21 10:13 | 18.83211 | 105.38325 | 31745 ft | 469 kts | 290° |
| 2026-04-21 10:13 | 18.85430 | 105.31845 | 31746 ft | 469 kts | 290° |
| 2026-04-21 10:14 | 18.87640 | 105.25383 | 31748 ft | 468 kts | 290° |
| 2026-04-21 10:14 | 18.89842 | 105.18936 | 31751 ft | 469 kts | 290° |
| 2026-04-21 10:15 | 18.92056 | 105.12448 | 31751 ft | 469 kts | 290° |
| 2026-04-21 10:15 | 18.94268 | 105.05955 | 31746 ft | 469 kts | 290° |
| 2026-04-21 10:16 | 18.96472 | 104.99479 | 31752 ft | 469 kts | 290° |
| 2026-04-21 10:16 | 18.98679 | 104.92984 | 31758 ft | 469 kts | 290° |
| 2026-04-21 10:17 | 19.00878 | 104.86507 | 31762 ft | 469 kts | 290° |
| 2026-04-21 10:17 | 19.03076 | 104.80021 | 31760 ft | 469 kts | 290° |
| 2026-04-21 10:18 | 19.05271 | 104.73535 | 31765 ft | 469 kts | 290° |
| 2026-04-21 10:18 | 19.07459 | 104.67064 | 31767 ft | 469 kts | 290° |
| 2026-04-21 10:19 | 19.09652 | 104.60570 | 31767 ft | 469 kts | 290° |
| 2026-04-21 10:19 | 19.11843 | 104.54074 | 31768 ft | 470 kts | 290° |
| 2026-04-21 10:20 | 19.14037 | 104.47558 | 31772 ft | 470 kts | 290° |
| 2026-04-21 10:20 | 19.16234 | 104.41026 | 31773 ft | 470 kts | 290° |
| 2026-04-21 10:21 | 19.18419 | 104.34520 | 31785 ft | 470 kts | 290° |
| 2026-04-21 10:21 | 19.20607 | 104.27997 | 31787 ft | 470 kts | 290° |
| 2026-04-21 10:22 | 19.22794 | 104.21470 | 31789 ft | 470 kts | 290° |
| 2026-04-21 10:22 | 19.24976 | 104.14948 | 31796 ft | 470 kts | 290° |
| 2026-04-21 10:23 | 19.27155 | 104.08425 | 31799 ft | 470 kts | 290° |
| 2026-04-21 10:23 | 19.29326 | 104.01921 | 31801 ft | 471 kts | 290° |
| 2026-04-21 10:24 | 19.31504 | 103.95385 | 31807 ft | 471 kts | 290° |
| 2026-04-21 10:24 | 19.33670 | 103.88836 | 31808 ft | 470 kts | 289° |
| 2026-04-21 10:25 | 19.35787 | 103.82288 | 31808 ft | 470 kts | 289° |
| 2026-04-21 10:25 | 19.37914 | 103.75786 | 31806 ft | 470 kts | 289° |
| 2026-04-21 10:26 | 19.40034 | 103.69246 | 31803 ft | 469 kts | 289° |
| 2026-04-21 10:26 | 19.42164 | 103.62695 | 31809 ft | 469 kts | 289° |
| 2026-04-21 10:27 | 19.44339 | 103.56175 | 31803 ft | 470 kts | 291° |
| 2026-04-21 10:27 | 19.46595 | 103.49666 | 31807 ft | 470 kts | 290° |
| 2026-04-21 10:28 | 19.48786 | 103.43159 | 31806 ft | 469 kts | 290° |
| 2026-04-21 10:28 | 19.51013 | 103.36651 | 31808 ft | 469 kts | 290° |
| 2026-04-21 10:29 | 19.53201 | 103.30182 | 31800 ft | 469 kts | 290° |
| 2026-04-21 10:29 | 19.55414 | 103.23669 | 31798 ft | 470 kts | 290° |
| 2026-04-21 10:30 | 19.57264 | 103.18201 | 31796 ft | 470 kts | 290° |
| 2026-04-21 10:30 | 19.59460 | 103.11710 | 31795 ft | 470 kts | 290° |
| 2026-04-21 10:31 | 19.61662 | 103.05189 | 31787 ft | 469 kts | 290° |
| 2026-04-21 10:31 | 19.63858 | 102.98679 | 31777 ft | 469 kts | 290° |
| 2026-04-21 10:32 | 19.66057 | 102.92151 | 31773 ft | 469 kts | 290° |
| 2026-04-21 10:32 | 19.68253 | 102.85625 | 31777 ft | 469 kts | 290° |
| 2026-04-21 10:33 | 19.70444 | 102.79102 | 31766 ft | 470 kts | 290° |
| 2026-04-21 10:33 | 19.72626 | 102.72600 | 31767 ft | 470 kts | 289° |
| 2026-04-21 10:34 | 19.74813 | 102.66072 | 31762 ft | 469 kts | 290° |
| 2026-04-21 10:34 | 19.76999 | 102.59538 | 31759 ft | 469 kts | 289° |
| 2026-04-21 10:35 | 19.79184 | 102.53000 | 31749 ft | 469 kts | 289° |
| 2026-04-21 10:35 | 19.81364 | 102.46469 | 31746 ft | 469 kts | 289° |
| 2026-04-21 10:36 | 19.83525 | 102.39983 | 31739 ft | 468 kts | 289° |
| 2026-04-21 10:36 | 19.85695 | 102.33462 | 31733 ft | 468 kts | 289° |
| 2026-04-21 10:37 | 19.87862 | 102.26943 | 31727 ft | 467 kts | 289° |
| 2026-04-21 10:37 | 19.90022 | 102.20433 | 31719 ft | 467 kts | 289° |
| 2026-04-21 10:38 | 19.92729 | 102.14155 | 31730 ft | 467 kts | 299° |
| 2026-04-21 10:38 | 19.95961 | 102.08166 | 31733 ft | 468 kts | 300° |
| 2026-04-21 10:39 | 19.99196 | 102.02146 | 31719 ft | 467 kts | 299° |
| 2026-04-21 10:39 | 20.02413 | 101.96162 | 31722 ft | 468 kts | 299° |
| 2026-04-21 10:40 | 20.05620 | 101.90188 | 31761 ft | 467 kts | 299° |
| 2026-04-21 10:40 | 20.08857 | 101.84152 | 31757 ft | 467 kts | 299° |
| 2026-04-21 10:41 | 20.12060 | 101.78175 | 31759 ft | 468 kts | 299° |
| 2026-04-21 10:41 | 20.15278 | 101.72161 | 31765 ft | 467 kts | 299° |
| 2026-04-21 10:42 | 20.18495 | 101.66143 | 31775 ft | 468 kts | 299° |
| 2026-04-21 10:42 | 20.21725 | 101.60095 | 31780 ft | 468 kts | 299° |
| 2026-04-21 10:43 | 20.24943 | 101.54064 | 31785 ft | 468 kts | 299° |
| 2026-04-21 10:43 | 20.28150 | 101.48045 | 31786 ft | 469 kts | 299° |
| 2026-04-21 10:44 | 20.31367 | 101.42004 | 31791 ft | 468 kts | 299° |
| 2026-04-21 10:44 | 20.34582 | 101.35957 | 31797 ft | 468 kts | 299° |
| 2026-04-21 10:45 | 20.37794 | 101.29912 | 31804 ft | 467 kts | 298° |
| 2026-04-21 10:45 | 20.40956 | 101.23953 | 31784 ft | 460 kts | 298° |
| 2026-04-21 10:46 | 20.44096 | 101.18031 | 31787 ft | 461 kts | 298° |
| 2026-04-21 10:46 | 20.47251 | 101.12072 | 31795 ft | 461 kts | 298° |
| 2026-04-21 10:47 | 20.50408 | 101.06104 | 31797 ft | 461 kts | 298° |
| 2026-04-21 10:47 | 20.53557 | 101.00145 | 31799 ft | 461 kts | 298° |
| 2026-04-21 10:48 | 20.56706 | 100.94179 | 31806 ft | 461 kts | 298° |
| 2026-04-21 10:48 | 20.59855 | 100.88208 | 31791 ft | 462 kts | 298° |
| 2026-04-21 10:49 | 20.63010 | 100.82219 | 31795 ft | 461 kts | 298° |
| 2026-04-21 10:49 | 20.66151 | 100.76248 | 31787 ft | 461 kts | 298° |
| 2026-04-21 10:50 | 20.69290 | 100.70277 | 31780 ft | 462 kts | 298° |
| 2026-04-21 10:50 | 20.72418 | 100.64321 | 31777 ft | 462 kts | 298° |
| 2026-04-21 10:51 | 20.75555 | 100.58340 | 31769 ft | 461 kts | 298° |
| 2026-04-21 10:51 | 20.78683 | 100.52370 | 31772 ft | 460 kts | 297° |
| 2026-04-21 10:52 | 20.81658 | 100.46324 | 31793 ft | 458 kts | 290° |
| 2026-04-21 10:52 | 20.83529 | 100.39815 | 31768 ft | 457 kts | 285° |
| 2026-04-21 10:53 | 20.85307 | 100.33299 | 31769 ft | 457 kts | 285° |
| 2026-04-21 10:53 | 20.87065 | 100.26802 | 31767 ft | 457 kts | 285° |
| 2026-04-21 10:54 | 20.88831 | 100.20296 | 31770 ft | 455 kts | 285° |
| 2026-04-21 10:54 | 20.90592 | 100.13778 | 31773 ft | 456 kts | 285° |
| 2026-04-21 10:55 | 20.92350 | 100.07271 | 31775 ft | 454 kts | 285° |
| 2026-04-21 10:55 | 20.94106 | 100.00757 | 31776 ft | 455 kts | 285° |
| 2026-04-21 10:56 | 20.95859 | 99.94243 | 31782 ft | 455 kts | 285° |
| 2026-04-21 10:56 | 20.97609 | 99.87732 | 31784 ft | 456 kts | 285° |
| 2026-04-21 10:57 | 20.99346 | 99.81256 | 31786 ft | 455 kts | 285° |
| 2026-04-21 10:57 | 21.01097 | 99.74716 | 31794 ft | 457 kts | 285° |
| 2026-04-21 10:58 | 21.02846 | 99.68178 | 31793 ft | 456 kts | 285° |
| 2026-04-21 10:58 | 21.04589 | 99.61647 | 31795 ft | 456 kts | 285° |
| 2026-04-21 10:59 | 21.06330 | 99.55115 | 31791 ft | 456 kts | 285° |
| 2026-04-21 10:59 | 21.08061 | 99.48604 | 31795 ft | 456 kts | 285° |
| 2026-04-21 11:00 | 21.09797 | 99.42071 | 31792 ft | 456 kts | 285° |
| 2026-04-21 11:00 | 21.11527 | 99.35545 | 31790 ft | 455 kts | 285° |
| 2026-04-21 11:01 | 21.13258 | 99.29009 | 31786 ft | 455 kts | 285° |
| 2026-04-21 11:01 | 21.14985 | 99.22468 | 31780 ft | 456 kts | 285° |
| 2026-04-21 11:02 | 21.17577 | 99.12640 | 31774 ft | 456 kts | 285° |
| 2026-04-21 11:02 | 21.19293 | 99.06122 | 31767 ft | 454 kts | 284° |
| 2026-04-21 11:03 | 21.21001 | 98.99621 | 31765 ft | 453 kts | 284° |
| 2026-04-21 11:03 | 21.22707 | 98.93112 | 31753 ft | 453 kts | 284° |
| 2026-04-21 11:04 | 21.24400 | 98.86647 | 31745 ft | 452 kts | 284° |
| 2026-04-21 11:04 | 21.26096 | 98.80159 | 31742 ft | 452 kts | 284° |
| 2026-04-21 11:05 | 21.27786 | 98.73684 | 31739 ft | 452 kts | 284° |
| 2026-04-21 11:05 | 21.29481 | 98.67174 | 31720 ft | 452 kts | 284° |
| 2026-04-21 11:06 | 21.31174 | 98.60665 | 31719 ft | 453 kts | 284° |
| 2026-04-21 11:06 | 21.32854 | 98.54194 | 31713 ft | 453 kts | 284° |
| 2026-04-21 11:07 | 21.34544 | 98.47669 | 31713 ft | 454 kts | 284° |
| 2026-04-21 11:07 | 21.36233 | 98.41144 | 31715 ft | 453 kts | 284° |
| 2026-04-21 11:08 | 21.37915 | 98.34632 | 31718 ft | 454 kts | 284° |
| 2026-04-21 11:08 | 21.39597 | 98.28107 | 31719 ft | 454 kts | 284° |
| 2026-04-21 11:09 | 21.41278 | 98.21575 | 31726 ft | 453 kts | 284° |
| 2026-04-21 11:09 | 21.42953 | 98.15057 | 31736 ft | 454 kts | 284° |
| 2026-04-21 11:10 | 21.44621 | 98.08552 | 31740 ft | 454 kts | 284° |
| 2026-04-21 11:10 | 21.46298 | 98.02004 | 31745 ft | 454 kts | 284° |
| 2026-04-21 11:11 | 21.47968 | 97.95465 | 31745 ft | 454 kts | 284° |
| 2026-04-21 11:11 | 21.49637 | 97.88927 | 31753 ft | 453 kts | 284° |
| 2026-04-21 11:12 | 21.51298 | 97.82404 | 31760 ft | 453 kts | 284° |
| 2026-04-21 11:12 | 21.52948 | 97.75916 | 31767 ft | 453 kts | 284° |
| 2026-04-21 11:13 | 21.54606 | 97.69384 | 31768 ft | 453 kts | 284° |
| 2026-04-21 11:13 | 21.56261 | 97.62852 | 31769 ft | 452 kts | 283° |
| 2026-04-21 11:14 | 21.57907 | 97.56340 | 31767 ft | 452 kts | 283° |
| 2026-04-21 11:14 | 21.59554 | 97.49818 | 31760 ft | 452 kts | 283° |
| 2026-04-21 11:15 | 21.60919 | 97.44403 | 31755 ft | 451 kts | 284° |
| 2026-04-21 11:15 | 21.62816 | 97.36866 | 31753 ft | 450 kts | 283° |
| 2026-04-21 11:16 | 21.64174 | 97.31457 | 31753 ft | 451 kts | 283° |
| 2026-04-21 11:16 | 21.65810 | 97.24933 | 31747 ft | 451 kts | 283° |
| 2026-04-21 11:17 | 21.67436 | 97.18435 | 31748 ft | 451 kts | 283° |
| 2026-04-21 11:17 | 21.69067 | 97.11911 | 31742 ft | 451 kts | 283° |
| 2026-04-21 11:18 | 21.70692 | 97.05392 | 31739 ft | 451 kts | 283° |
| 2026-04-21 11:18 | 21.72315 | 96.98874 | 31746 ft | 451 kts | 283° |
| 2026-04-21 11:19 | 21.73933 | 96.92364 | 31737 ft | 450 kts | 283° |
| 2026-04-21 11:19 | 21.75550 | 96.85848 | 31737 ft | 450 kts | 283° |
| 2026-04-21 11:20 | 21.77153 | 96.79376 | 31741 ft | 450 kts | 283° |
| 2026-04-21 11:20 | 21.78770 | 96.72829 | 31731 ft | 450 kts | 283° |
| 2026-04-21 11:21 | 21.80369 | 96.66352 | 31740 ft | 450 kts | 283° |
| 2026-04-21 11:21 | 21.81974 | 96.59834 | 31732 ft | 450 kts | 283° |
| 2026-04-21 11:22 | 21.83575 | 96.53322 | 31731 ft | 451 kts | 283° |
| 2026-04-21 11:22 | 21.85177 | 96.46794 | 31726 ft | 449 kts | 283° |
| 2026-04-21 11:23 | 21.86768 | 96.40295 | 31711 ft | 448 kts | 283° |
| 2026-04-21 11:23 | 21.88356 | 96.33802 | 31703 ft | 449 kts | 283° |
| 2026-04-21 11:24 | 21.89942 | 96.27304 | 31693 ft | 448 kts | 283° |
| 2026-04-21 11:24 | 21.91514 | 96.20851 | 31676 ft | 448 kts | 283° |
| 2026-04-21 11:25 | 21.93089 | 96.14363 | 31666 ft | 448 kts | 281° |
| 2026-04-21 11:25 | 21.93885 | 96.07731 | 31657 ft | 447 kts | 274° |
| 2026-04-21 11:26 | 21.94472 | 96.01077 | 31659 ft | 447 kts | 274° |
| 2026-04-21 11:26 | 21.95051 | 95.94401 | 31653 ft | 447 kts | 274° |
| 2026-04-21 11:27 | 21.95627 | 95.87753 | 31649 ft | 447 kts | 274° |
| 2026-04-21 11:27 | 21.96203 | 95.81070 | 31652 ft | 446 kts | 274° |
| 2026-04-21 11:28 | 21.96771 | 95.74448 | 31648 ft | 446 kts | 274° |
| 2026-04-21 11:28 | 21.97340 | 95.67784 | 31646 ft | 446 kts | 274° |
| 2026-04-21 11:29 | 21.97905 | 95.61133 | 31654 ft | 447 kts | 274° |
| 2026-04-21 11:29 | 21.98469 | 95.54460 | 31656 ft | 446 kts | 274° |
| 2026-04-21 11:30 | 21.99027 | 95.47834 | 31659 ft | 447 kts | 274° |
| 2026-04-21 11:30 | 21.99586 | 95.41152 | 31652 ft | 447 kts | 274° |
| 2026-04-21 11:31 | 22.00143 | 95.34476 | 31652 ft | 447 kts | 274° |
| 2026-04-21 11:31 | 22.00695 | 95.27813 | 31652 ft | 447 kts | 274° |
| 2026-04-21 11:32 | 22.01248 | 95.21118 | 31663 ft | 448 kts | 274° |
| 2026-04-21 11:32 | 22.01792 | 95.14481 | 31656 ft | 447 kts | 274° |
| 2026-04-21 11:33 | 22.02338 | 95.07797 | 31660 ft | 448 kts | 274° |
| 2026-04-21 11:33 | 22.02881 | 95.01122 | 31666 ft | 447 kts | 274° |
| 2026-04-21 11:34 | 22.03421 | 94.94435 | 31664 ft | 447 kts | 274° |
| 2026-04-21 11:34 | 22.03959 | 94.87749 | 31668 ft | 447 kts | 274° |
| 2026-04-21 11:35 | 22.04491 | 94.81107 | 31674 ft | 446 kts | 274° |
| 2026-04-21 11:35 | 22.05022 | 94.74434 | 31677 ft | 447 kts | 274° |
| 2026-04-21 11:36 | 22.05552 | 94.67745 | 31676 ft | 447 kts | 274° |
| 2026-04-21 11:36 | 22.06079 | 94.61057 | 31694 ft | 447 kts | 274° |
| 2026-04-21 11:37 | 22.06601 | 94.54393 | 31696 ft | 447 kts | 273° |
| 2026-04-21 11:37 | 22.07123 | 94.47706 | 31698 ft | 447 kts | 273° |
| 2026-04-21 11:38 | 22.07641 | 94.41024 | 31681 ft | 448 kts | 273° |
| 2026-04-21 11:38 | 22.08157 | 94.34339 | 31695 ft | 446 kts | 273° |
| 2026-04-21 11:39 | 22.08669 | 94.27663 | 31693 ft | 446 kts | 273° |
| 2026-04-21 11:39 | 22.09175 | 94.21030 | 31694 ft | 447 kts | 273° |
| 2026-04-21 11:40 | 22.09682 | 94.14366 | 31694 ft | 446 kts | 273° |
| 2026-04-21 11:40 | 22.10186 | 94.07680 | 31700 ft | 446 kts | 273° |
| 2026-04-21 11:41 | 22.10686 | 94.01026 | 31714 ft | 445 kts | 273° |
| 2026-04-21 11:41 | 22.11183 | 93.94374 | 31715 ft | 445 kts | 273° |
| 2026-04-21 11:42 | 22.11678 | 93.87711 | 31755 ft | 445 kts | 273° |
| 2026-04-21 11:42 | 22.12169 | 93.81058 | 31759 ft | 445 kts | 273° |
| 2026-04-21 11:43 | 22.12654 | 93.74461 | 31788 ft | 444 kts | 273° |
| 2026-04-21 11:43 | 22.13144 | 93.67789 | 31784 ft | 445 kts | 273° |
| 2026-04-21 11:44 | 22.13622 | 93.61143 | 31816 ft | 444 kts | 273° |
| 2026-04-21 11:44 | 22.14105 | 93.54493 | 31838 ft | 444 kts | 272° |
| 2026-04-21 11:45 | 22.14578 | 93.47884 | 31848 ft | 443 kts | 272° |
| 2026-04-21 11:45 | 22.15052 | 93.41262 | 31849 ft | 443 kts | 272° |
| 2026-04-21 11:46 | 22.15522 | 93.34628 | 31869 ft | 442 kts | 272° |
| 2026-04-21 11:46 | 22.15987 | 93.28044 | 31858 ft | 445 kts | 272° |
| 2026-04-21 11:47 | 22.16454 | 93.21401 | 31873 ft | 443 kts | 272° |
| 2026-04-21 11:47 | 22.16916 | 93.14775 | 31847 ft | 441 kts | 272° |
| 2026-04-21 11:48 | 22.17374 | 93.08170 | 31829 ft | 442 kts | 272° |
| 2026-04-21 11:48 | 22.17832 | 93.01533 | 31838 ft | 443 kts | 272° |
| 2026-04-21 11:49 | 22.18287 | 92.94900 | 31817 ft | 443 kts | 272° |
| 2026-04-21 11:49 | 22.18738 | 92.88267 | 31822 ft | 443 kts | 272° |
| 2026-04-21 11:50 | 22.19187 | 92.81646 | 31811 ft | 443 kts | 272° |
| 2026-04-21 11:50 | 22.19633 | 92.75016 | 31808 ft | 443 kts | 272° |
| 2026-04-21 11:51 | 22.20074 | 92.68436 | 31804 ft | 442 kts | 272° |
| 2026-04-21 11:51 | 22.20508 | 92.61807 | 31795 ft | 442 kts | 272° |
| 2026-04-21 11:52 | 22.20902 | 92.55187 | 31791 ft | 442 kts | 272° |
| 2026-04-21 11:52 | 22.21312 | 92.48557 | 31783 ft | 443 kts | 272° |
| 2026-04-21 11:53 | 22.21711 | 92.41924 | 31800 ft | 442 kts | 272° |
| 2026-04-21 11:53 | 22.22110 | 92.35302 | 31776 ft | 442 kts | 271° |
| 2026-04-21 11:54 | 22.22505 | 92.28691 | 31770 ft | 442 kts | 271° |
| 2026-04-21 11:54 | 22.22951 | 92.22098 | 31771 ft | 442 kts | 273° |
| 2026-04-21 11:55 | 22.23456 | 92.15471 | 31762 ft | 443 kts | 272° |
| 2026-04-21 11:55 | 22.23919 | 92.08834 | 31758 ft | 443 kts | 272° |
| 2026-04-21 11:56 | 22.24403 | 92.02196 | 31754 ft | 443 kts | 272° |
| 2026-04-21 11:56 | 22.24866 | 91.95618 | 31752 ft | 443 kts | 272° |
| 2026-04-21 11:57 | 22.25339 | 91.88971 | 31754 ft | 442 kts | 272° |
| 2026-04-21 11:57 | 22.25819 | 91.82335 | 31745 ft | 443 kts | 275° |
| 2026-04-21 11:58 | 22.26595 | 91.75740 | 31747 ft | 443 kts | 274° |
| 2026-04-21 11:58 | 22.27348 | 91.69178 | 31751 ft | 442 kts | 274° |
| 2026-04-21 11:59 | 22.28113 | 91.62577 | 31752 ft | 442 kts | 274° |
| 2026-04-21 11:59 | 22.28869 | 91.55989 | 31751 ft | 442 kts | 274° |
| 2026-04-21 12:00 | 22.29623 | 91.49411 | 31751 ft | 442 kts | 274° |
| 2026-04-21 12:00 | 22.30375 | 91.42815 | 31750 ft | 442 kts | 274° |
| 2026-04-21 12:01 | 22.31124 | 91.36268 | 31750 ft | 442 kts | 274° |
| 2026-04-21 12:01 | 22.31962 | 91.29701 | 31754 ft | 443 kts | 275° |
| 2026-04-21 12:02 | 22.33177 | 91.19793 | 31753 ft | 442 kts | 275° |
| 2026-04-21 12:03 | 22.33991 | 91.13244 | 31751 ft | 443 kts | 274° |
| 2026-04-21 12:03 | 22.34796 | 91.06654 | 31742 ft | 442 kts | 274° |
| 2026-04-21 12:04 | 22.35602 | 91.00087 | 31739 ft | 440 kts | 274° |
| 2026-04-21 12:04 | 22.36266 | 90.94628 | 31746 ft | 441 kts | 274° |
| 2026-04-21 12:05 | 22.37067 | 90.88046 | 31750 ft | 441 kts | 274° |
| 2026-04-21 12:05 | 22.37863 | 90.81474 | 31750 ft | 441 kts | 274° |
| 2026-04-21 12:06 | 22.38656 | 90.74904 | 31748 ft | 441 kts | 274° |
| 2026-04-21 12:06 | 22.39448 | 90.68327 | 31748 ft | 441 kts | 274° |
| 2026-04-21 12:07 | 22.40237 | 90.61751 | 31749 ft | 441 kts | 274° |
| 2026-04-21 12:07 | 22.41024 | 90.55162 | 31750 ft | 442 kts | 274° |
| 2026-04-21 12:08 | 22.41803 | 90.48621 | 31745 ft | 442 kts | 274° |
| 2026-04-21 12:08 | 22.42585 | 90.42030 | 31740 ft | 441 kts | 274° |
| 2026-04-21 12:09 | 22.43365 | 90.35432 | 31743 ft | 441 kts | 274° |
| 2026-04-21 12:09 | 22.44135 | 90.28894 | 31737 ft | 442 kts | 274° |
| 2026-04-21 12:10 | 22.44914 | 90.22268 | 31739 ft | 441 kts | 274° |
| 2026-04-21 12:10 | 22.45679 | 90.15722 | 31736 ft | 441 kts | 274° |
| 2026-04-21 12:11 | 22.46446 | 90.09145 | 31733 ft | 441 kts | 274° |
| 2026-04-21 12:11 | 22.47211 | 90.02556 | 31733 ft | 441 kts | 274° |
| 2026-04-21 12:12 | 22.47972 | 89.95983 | 31729 ft | 441 kts | 274° |
| 2026-04-21 12:12 | 22.48731 | 89.89404 | 31729 ft | 441 kts | 274° |
| 2026-04-21 12:13 | 22.49490 | 89.82798 | 31725 ft | 441 kts | 274° |
| 2026-04-21 12:13 | 22.50241 | 89.76232 | 31724 ft | 443 kts | 274° |
| 2026-04-21 12:14 | 22.50997 | 89.69609 | 31725 ft | 443 kts | 274° |
| 2026-04-21 12:14 | 22.51748 | 89.62997 | 31719 ft | 443 kts | 274° |
| 2026-04-21 12:15 | 22.52499 | 89.56361 | 31721 ft | 444 kts | 274° |
| 2026-04-21 12:15 | 22.53247 | 89.49738 | 31710 ft | 443 kts | 274° |
| 2026-04-21 12:16 | 22.53990 | 89.43119 | 31712 ft | 443 kts | 274° |
| 2026-04-21 12:16 | 22.54727 | 89.36541 | 31708 ft | 443 kts | 274° |
| 2026-04-21 12:17 | 22.55465 | 89.29919 | 31709 ft | 443 kts | 274° |
| 2026-04-21 12:17 | 22.56200 | 89.23308 | 31710 ft | 443 kts | 274° |
| 2026-04-21 12:18 | 22.56933 | 89.16691 | 31706 ft | 442 kts | 274° |
| 2026-04-21 12:18 | 22.57660 | 89.10092 | 31702 ft | 441 kts | 274° |
| 2026-04-21 12:19 | 22.58383 | 89.03511 | 31703 ft | 441 kts | 274° |
| 2026-04-21 12:19 | 22.59101 | 88.96957 | 31703 ft | 440 kts | 274° |
| 2026-04-21 12:20 | 22.60039 | 88.90401 | 31694 ft | 442 kts | 278° |
| 2026-04-21 12:20 | 22.61135 | 88.83844 | 31702 ft | 442 kts | 277° |
| 2026-04-21 12:21 | 22.62235 | 88.77307 | 31702 ft | 442 kts | 277° |
| 2026-04-21 12:21 | 22.63326 | 88.70790 | 31701 ft | 442 kts | 277° |
| 2026-04-21 12:22 | 22.64419 | 88.64243 | 31699 ft | 442 kts | 277° |
| 2026-04-21 12:22 | 22.65513 | 88.57680 | 31698 ft | 442 kts | 277° |
| 2026-04-21 12:23 | 22.66602 | 88.51124 | 31702 ft | 442 kts | 277° |
| 2026-04-21 12:23 | 22.67652 | 88.44565 | 31704 ft | 441 kts | 273° |
| 2026-04-21 12:24 | 22.68105 | 88.37939 | 31702 ft | 441 kts | 272° |
| 2026-04-21 12:24 | 22.68553 | 88.31354 | 31701 ft | 441 kts | 272° |
| 2026-04-21 12:25 | 22.68986 | 88.24725 | 31702 ft | 441 kts | 272° |
| 2026-04-21 12:25 | 22.69426 | 88.18088 | 31702 ft | 441 kts | 272° |
| 2026-04-21 12:26 | 22.69857 | 88.11461 | 31705 ft | 440 kts | 272° |
| 2026-04-21 12:26 | 22.70286 | 88.04878 | 31702 ft | 441 kts | 272° |
| 2026-04-21 12:27 | 22.70712 | 87.98262 | 31703 ft | 440 kts | 271° |
| 2026-04-21 12:27 | 22.71137 | 87.91639 | 31702 ft | 440 kts | 271° |
| 2026-04-21 12:28 | 22.71559 | 87.85018 | 31704 ft | 439 kts | 271° |
| 2026-04-21 12:28 | 22.71976 | 87.78421 | 31699 ft | 439 kts | 271° |
| 2026-04-21 12:29 | 22.72392 | 87.71809 | 31696 ft | 439 kts | 271° |
| 2026-04-21 12:29 | 22.72805 | 87.65200 | 31696 ft | 439 kts | 271° |
| 2026-04-21 12:30 | 22.73214 | 87.58601 | 31687 ft | 438 kts | 271° |
| 2026-04-21 12:30 | 22.73619 | 87.52029 | 31687 ft | 437 kts | 271° |
| 2026-04-21 12:31 | 22.74021 | 87.45460 | 31685 ft | 437 kts | 270° |
| 2026-04-21 12:31 | 22.74420 | 87.38885 | 31685 ft | 437 kts | 270° |
| 2026-04-21 12:32 | 22.74817 | 87.32324 | 31682 ft | 436 kts | 270° |
| 2026-04-21 12:32 | 22.75207 | 87.25816 | 31676 ft | 436 kts | 270° |
| 2026-04-21 12:33 | 22.75599 | 87.19239 | 31679 ft | 437 kts | 270° |
| 2026-04-21 12:33 | 22.75988 | 87.12669 | 31688 ft | 437 kts | 270° |
| 2026-04-21 12:34 | 22.76374 | 87.06097 | 31693 ft | 437 kts | 270° |
| 2026-04-21 12:34 | 22.76757 | 86.99535 | 31694 ft | 436 kts | 270° |
| 2026-04-21 12:35 | 22.77137 | 86.92967 | 31701 ft | 437 kts | 270° |
| 2026-04-21 12:35 | 22.77515 | 86.86395 | 31708 ft | 437 kts | 270° |
| 2026-04-21 12:36 | 22.77889 | 86.79837 | 31717 ft | 436 kts | 270° |
| 2026-04-21 12:36 | 22.78261 | 86.73279 | 31721 ft | 436 kts | 270° |
| 2026-04-21 12:37 | 22.78628 | 86.66755 | 31721 ft | 436 kts | 270° |
| 2026-04-21 12:37 | 22.78994 | 86.60207 | 31727 ft | 436 kts | 270° |
| 2026-04-21 12:38 | 22.79358 | 86.53645 | 31736 ft | 435 kts | 270° |
| 2026-04-21 12:38 | 22.79719 | 86.47088 | 31722 ft | 435 kts | 270° |
| 2026-04-21 12:39 | 22.80076 | 86.40554 | 31704 ft | 434 kts | 270° |
| 2026-04-21 12:39 | 22.80430 | 86.34019 | 31688 ft | 434 kts | 270° |
| 2026-04-21 12:40 | 22.80782 | 86.27482 | 31677 ft | 434 kts | 270° |
| 2026-04-21 12:40 | 22.81128 | 86.20998 | 31660 ft | 433 kts | 270° |
| 2026-04-21 12:41 | 22.81565 | 86.14471 | 31662 ft | 434 kts | 271° |
| 2026-04-21 12:41 | 22.82102 | 86.07953 | 31659 ft | 433 kts | 271° |
| 2026-04-21 12:42 | 22.82638 | 86.01461 | 31685 ft | 433 kts | 271° |
| 2026-04-21 12:42 | 22.83174 | 85.94942 | 31708 ft | 433 kts | 271° |
| 2026-04-21 12:43 | 22.83703 | 85.88443 | 31735 ft | 433 kts | 271° |
| 2026-04-21 12:43 | 22.84232 | 85.81943 | 31781 ft | 433 kts | 271° |
| 2026-04-21 12:44 | 22.84755 | 85.75462 | 31800 ft | 434 kts | 271° |
| 2026-04-21 12:44 | 22.85279 | 85.68954 | 31820 ft | 434 kts | 271° |
| 2026-04-21 12:45 | 22.85800 | 85.62418 | 31811 ft | 433 kts | 271° |
| 2026-04-21 12:45 | 22.86321 | 85.55894 | 31828 ft | 433 kts | 271° |
| 2026-04-21 12:46 | 22.86832 | 85.49429 | 31821 ft | 433 kts | 271° |
| 2026-04-21 12:46 | 22.87344 | 85.42929 | 31832 ft | 433 kts | 271° |
| 2026-04-21 12:47 | 22.87853 | 85.36423 | 31837 ft | 433 kts | 271° |
| 2026-04-21 12:47 | 22.88361 | 85.29926 | 31842 ft | 433 kts | 271° |
| 2026-04-21 12:48 | 22.88865 | 85.23415 | 31845 ft | 433 kts | 271° |
| 2026-04-21 12:48 | 22.89367 | 85.16907 | 31841 ft | 432 kts | 271° |
| 2026-04-21 12:49 | 22.89867 | 85.10408 | 31844 ft | 433 kts | 271° |
| 2026-04-21 12:49 | 22.90292 | 85.04961 | 31849 ft | 433 kts | 270° |
| 2026-04-21 12:50 | 22.90790 | 84.98487 | 31854 ft | 433 kts | 270° |
| 2026-04-21 12:50 | 22.91291 | 84.91965 | 31859 ft | 433 kts | 270° |
| 2026-04-21 12:51 | 22.91788 | 84.85444 | 31863 ft | 434 kts | 270° |
| 2026-04-21 12:51 | 22.92281 | 84.78949 | 31864 ft | 434 kts | 270° |
| 2026-04-21 12:52 | 22.92773 | 84.72432 | 31858 ft | 434 kts | 270° |
| 2026-04-21 12:52 | 22.93261 | 84.65918 | 31866 ft | 434 kts | 270° |
| 2026-04-21 12:53 | 22.93749 | 84.59390 | 31867 ft | 434 kts | 270° |
| 2026-04-21 12:53 | 22.94233 | 84.52868 | 31857 ft | 434 kts | 270° |
| 2026-04-21 12:54 | 22.94714 | 84.46348 | 31869 ft | 433 kts | 270° |
| 2026-04-21 12:54 | 22.95190 | 84.39859 | 31869 ft | 433 kts | 270° |
| 2026-04-21 12:55 | 22.95666 | 84.33344 | 31856 ft | 433 kts | 270° |
| 2026-04-21 12:55 | 22.96139 | 84.26818 | 31866 ft | 433 kts | 270° |
| 2026-04-21 12:56 | 22.96609 | 84.20310 | 31864 ft | 433 kts | 270° |
| 2026-04-21 12:56 | 22.97076 | 84.13796 | 31866 ft | 433 kts | 270° |
| 2026-04-21 12:57 | 22.97439 | 84.07283 | 31869 ft | 432 kts | 269° |
| 2026-04-21 12:57 | 22.97806 | 84.00803 | 31863 ft | 432 kts | 269° |
| 2026-04-21 12:58 | 22.98149 | 83.94301 | 31861 ft | 431 kts | 269° |
| 2026-04-21 12:58 | 22.98501 | 83.87807 | 31854 ft | 430 kts | 269° |
| 2026-04-21 12:59 | 22.98844 | 83.81327 | 31864 ft | 430 kts | 269° |
| 2026-04-21 12:59 | 22.99185 | 83.74887 | 31855 ft | 430 kts | 269° |
| 2026-04-21 13:00 | 22.99523 | 83.68416 | 31857 ft | 430 kts | 269° |
| 2026-04-21 13:00 | 22.99860 | 83.61932 | 31852 ft | 430 kts | 269° |
| 2026-04-21 13:01 | 23.00195 | 83.55449 | 31845 ft | 429 kts | 269° |
| 2026-04-21 13:01 | 23.00525 | 83.48982 | 31844 ft | 429 kts | 269° |
| 2026-04-21 13:02 | 23.00855 | 83.42498 | 31838 ft | 429 kts | 269° |
| 2026-04-21 13:02 | 23.01340 | 83.32838 | 31839 ft | 429 kts | 269° |
| 2026-04-21 13:03 | 23.01661 | 83.26373 | 31828 ft | 429 kts | 269° |
| 2026-04-21 13:03 | 23.01980 | 83.19919 | 31826 ft | 428 kts | 268° |
| 2026-04-21 13:04 | 23.02296 | 83.13460 | 31822 ft | 428 kts | 268° |
| 2026-04-21 13:04 | 23.02608 | 83.07003 | 31821 ft | 429 kts | 268° |
| 2026-04-21 13:05 | 23.02918 | 83.00577 | 31818 ft | 429 kts | 268° |
| 2026-04-21 13:05 | 23.03226 | 82.94106 | 31814 ft | 429 kts | 268° |
| 2026-04-21 13:06 | 23.03533 | 82.87629 | 31805 ft | 429 kts | 268° |
| 2026-04-21 13:06 | 23.03836 | 82.81153 | 31804 ft | 430 kts | 268° |
| 2026-04-21 13:07 | 23.04138 | 82.74653 | 31798 ft | 430 kts | 268° |
| 2026-04-21 13:07 | 23.04437 | 82.68168 | 31794 ft | 430 kts | 268° |
| 2026-04-21 13:08 | 23.04731 | 82.61719 | 31791 ft | 430 kts | 268° |
| 2026-04-21 13:08 | 23.05024 | 82.55242 | 31793 ft | 430 kts | 268° |
| 2026-04-21 13:09 | 23.05315 | 82.48758 | 31798 ft | 429 kts | 268° |
| 2026-04-21 13:09 | 23.05602 | 82.42281 | 31789 ft | 429 kts | 268° |
| 2026-04-21 13:10 | 23.05887 | 82.35797 | 31834 ft | 432 kts | 268° |
| 2026-04-21 13:10 | 23.06029 | 82.32556 | 32385 ft | 430 kts | 268° |
| 2026-04-21 13:10 | 23.06170 | 82.29336 | 32789 ft | 432 kts | 267° |
| 2026-04-21 13:11 | 23.06312 | 82.26043 | 33192 ft | 433 kts | 267° |
| 2026-04-21 13:11 | 23.06453 | 82.22777 | 33727 ft | 432 kts | 267° |
| 2026-04-21 13:11 | 23.06735 | 82.16254 | 33777 ft | 433 kts | 268° |
| 2026-04-21 13:12 | 23.07145 | 82.09761 | 33775 ft | 429 kts | 268° |
| 2026-04-21 13:12 | 23.07538 | 82.03302 | 33779 ft | 428 kts | 268° |
| 2026-04-21 13:13 | 23.07938 | 81.96861 | 33781 ft | 427 kts | 268° |
| 2026-04-21 13:13 | 23.08329 | 81.90417 | 33781 ft | 427 kts | 268° |
| 2026-04-21 13:14 | 23.08718 | 81.84024 | 33790 ft | 426 kts | 268° |
| 2026-04-21 13:14 | 23.09105 | 81.77591 | 33792 ft | 426 kts | 268° |
| 2026-04-21 13:15 | 23.09489 | 81.71167 | 33798 ft | 426 kts | 268° |
| 2026-04-21 13:15 | 23.09870 | 81.64757 | 33798 ft | 426 kts | 268° |
| 2026-04-21 13:16 | 23.10250 | 81.58333 | 33806 ft | 425 kts | 268° |
| 2026-04-21 13:16 | 23.10622 | 81.51965 | 33808 ft | 425 kts | 268° |
| 2026-04-21 13:17 | 23.10996 | 81.45555 | 33812 ft | 425 kts | 268° |
| 2026-04-21 13:17 | 23.11365 | 81.39158 | 33815 ft | 424 kts | 268° |
| 2026-04-21 13:18 | 23.11733 | 81.32746 | 33817 ft | 424 kts | 268° |
| 2026-04-21 13:18 | 23.12097 | 81.26372 | 33814 ft | 423 kts | 267° |
| 2026-04-21 13:19 | 23.12456 | 81.20020 | 33821 ft | 423 kts | 268° |
| 2026-04-21 13:19 | 23.12813 | 81.13661 | 33817 ft | 422 kts | 268° |
| 2026-04-21 13:20 | 23.13169 | 81.07293 | 33827 ft | 421 kts | 268° |
| 2026-04-21 13:20 | 23.13520 | 81.00930 | 33821 ft | 421 kts | 268° |
| 2026-04-21 13:21 | 23.13869 | 80.94594 | 33826 ft | 421 kts | 268° |
| 2026-04-21 13:21 | 23.14214 | 80.88265 | 33830 ft | 421 kts | 268° |
| 2026-04-21 13:22 | 23.14558 | 80.81912 | 33831 ft | 422 kts | 268° |
| 2026-04-21 13:22 | 23.14900 | 80.75548 | 33827 ft | 421 kts | 268° |
| 2026-04-21 13:23 | 23.15251 | 80.69190 | 33827 ft | 422 kts | 268° |
| 2026-04-21 13:23 | 23.15596 | 80.62876 | 33820 ft | 421 kts | 268° |
| 2026-04-21 13:24 | 23.15941 | 80.56496 | 33821 ft | 422 kts | 268° |
| 2026-04-21 13:24 | 23.16285 | 80.50123 | 33821 ft | 423 kts | 268° |
| 2026-04-21 13:25 | 23.16625 | 80.43745 | 33817 ft | 422 kts | 268° |
| 2026-04-21 13:25 | 23.16963 | 80.37361 | 33817 ft | 423 kts | 268° |
| 2026-04-21 13:26 | 23.17296 | 80.31014 | 33811 ft | 423 kts | 268° |
| 2026-04-21 13:26 | 23.17630 | 80.24619 | 33813 ft | 424 kts | 268° |
| 2026-04-21 13:27 | 23.17961 | 80.18212 | 33808 ft | 425 kts | 268° |
| 2026-04-21 13:27 | 23.18290 | 80.11804 | 33811 ft | 425 kts | 268° |
| 2026-04-21 13:28 | 23.18618 | 80.05371 | 33810 ft | 426 kts | 268° |
| 2026-04-21 13:28 | 23.18896 | 79.98939 | 33812 ft | 426 kts | 267° |
| 2026-04-21 13:29 | 23.19177 | 79.92541 | 33808 ft | 428 kts | 268° |
| 2026-04-21 13:29 | 23.19460 | 79.86038 | 33812 ft | 428 kts | 268° |
| 2026-04-21 13:30 | 23.19736 | 79.79589 | 33807 ft | 429 kts | 268° |
| 2026-04-21 13:30 | 23.20013 | 79.73087 | 33805 ft | 431 kts | 268° |
| 2026-04-21 13:31 | 23.20287 | 79.66570 | 33801 ft | 432 kts | 268° |
| 2026-04-21 13:31 | 23.20560 | 79.60031 | 33802 ft | 434 kts | 268° |
| 2026-04-21 13:32 | 23.20749 | 79.53517 | 33796 ft | 434 kts | 267° |
| 2026-04-21 13:32 | 23.20882 | 79.46940 | 33800 ft | 436 kts | 267° |
| 2026-04-21 13:33 | 23.20998 | 79.40343 | 33804 ft | 437 kts | 267° |
| 2026-04-21 13:33 | 23.21117 | 79.33723 | 33803 ft | 439 kts | 267° |
| 2026-04-21 13:34 | 23.21232 | 79.27079 | 33793 ft | 440 kts | 267° |
| 2026-04-21 13:34 | 23.21345 | 79.20409 | 33795 ft | 442 kts | 267° |
| 2026-04-21 13:35 | 23.21456 | 79.13718 | 33795 ft | 444 kts | 267° |
| 2026-04-21 13:35 | 23.21564 | 79.07039 | 33796 ft | 444 kts | 267° |
| 2026-04-21 13:36 | 23.21669 | 79.00306 | 33791 ft | 445 kts | 267° |
| 2026-04-21 13:36 | 23.21772 | 78.93582 | 33792 ft | 445 kts | 267° |
| 2026-04-21 13:37 | 23.21872 | 78.86840 | 33786 ft | 445 kts | 267° |
| 2026-04-21 13:37 | 23.21969 | 78.80087 | 33785 ft | 446 kts | 268° |
| 2026-04-21 13:38 | 23.22080 | 78.73347 | 33785 ft | 447 kts | 270° |
| 2026-04-21 13:38 | 23.22416 | 78.66626 | 33788 ft | 448 kts | 269° |
| 2026-04-21 13:39 | 23.22739 | 78.59848 | 33791 ft | 449 kts | 270° |
| 2026-04-21 13:39 | 23.23068 | 78.53073 | 33786 ft | 449 kts | 270° |
| 2026-04-21 13:40 | 23.23335 | 78.47431 | 33788 ft | 450 kts | 270° |
| 2026-04-21 13:40 | 23.23656 | 78.40644 | 33790 ft | 450 kts | 270° |
| 2026-04-21 13:41 | 23.23975 | 78.33827 | 33791 ft | 451 kts | 270° |
| 2026-04-21 13:41 | 23.24292 | 78.27006 | 33792 ft | 452 kts | 270° |
| 2026-04-21 13:42 | 23.24605 | 78.20182 | 33793 ft | 452 kts | 270° |
| 2026-04-21 13:42 | 23.24917 | 78.13337 | 33791 ft | 453 kts | 270° |
| 2026-04-21 13:43 | 23.25224 | 78.06529 | 33791 ft | 453 kts | 270° |
| 2026-04-21 13:43 | 23.25531 | 77.99663 | 33792 ft | 454 kts | 271° |
| 2026-04-21 13:44 | 23.25835 | 77.92784 | 33794 ft | 455 kts | 271° |
| 2026-04-21 13:44 | 23.26136 | 77.85899 | 33796 ft | 456 kts | 271° |
| 2026-04-21 13:45 | 23.26435 | 77.79011 | 33804 ft | 457 kts | 271° |
| 2026-04-21 13:45 | 23.26732 | 77.72088 | 33802 ft | 458 kts | 271° |
| 2026-04-21 13:46 | 23.27024 | 77.65200 | 33803 ft | 460 kts | 271° |
| 2026-04-21 13:46 | 23.27317 | 77.58233 | 33808 ft | 461 kts | 271° |
| 2026-04-21 13:47 | 23.27607 | 77.51252 | 33808 ft | 462 kts | 272° |
| 2026-04-21 13:47 | 23.27895 | 77.44259 | 33814 ft | 463 kts | 272° |
| 2026-04-21 13:48 | 23.28179 | 77.37286 | 33818 ft | 464 kts | 272° |
| 2026-04-21 13:48 | 23.28085 | 77.30263 | 33818 ft | 466 kts | 265° |
| 2026-04-21 13:49 | 23.27593 | 77.23247 | 33831 ft | 466 kts | 266° |
| 2026-04-21 13:49 | 23.27093 | 77.16200 | 33828 ft | 467 kts | 266° |
| 2026-04-21 13:50 | 23.26589 | 77.09135 | 33836 ft | 469 kts | 266° |
| 2026-04-21 13:50 | 23.26081 | 77.02061 | 33844 ft | 470 kts | 266° |
| 2026-04-21 13:51 | 23.25571 | 76.95010 | 33839 ft | 471 kts | 266° |
| 2026-04-21 13:51 | 23.25055 | 76.87904 | 33844 ft | 472 kts | 266° |
| 2026-04-21 13:52 | 23.24533 | 76.80773 | 33844 ft | 473 kts | 266° |
| 2026-04-21 13:52 | 23.24007 | 76.73624 | 33844 ft | 474 kts | 266° |
| 2026-04-21 13:53 | 23.23476 | 76.66453 | 33848 ft | 475 kts | 266° |
| 2026-04-21 13:53 | 23.22942 | 76.59284 | 33851 ft | 476 kts | 266° |
| 2026-04-21 13:54 | 23.22406 | 76.52137 | 33853 ft | 477 kts | 266° |
| 2026-04-21 13:54 | 23.21862 | 76.44926 | 33856 ft | 479 kts | 266° |
| 2026-04-21 13:55 | 23.21312 | 76.37686 | 33863 ft | 481 kts | 266° |
| 2026-04-21 13:55 | 23.20757 | 76.30414 | 33858 ft | 482 kts | 266° |
| 2026-04-21 13:56 | 23.20199 | 76.23155 | 33865 ft | 483 kts | 266° |
| 2026-04-21 13:56 | 23.19636 | 76.15863 | 33867 ft | 484 kts | 266° |
| 2026-04-21 13:57 | 23.19068 | 76.08566 | 33876 ft | 485 kts | 266° |
| 2026-04-21 13:57 | 23.18499 | 76.01299 | 33879 ft | 486 kts | 266° |
| 2026-04-21 13:58 | 23.18321 | 75.93976 | 33901 ft | 486 kts | 271° |
| 2026-04-21 13:58 | 23.18237 | 75.86620 | 33906 ft | 487 kts | 271° |
| 2026-04-21 13:59 | 23.18143 | 75.79244 | 33910 ft | 488 kts | 271° |
| 2026-04-21 13:59 | 23.18052 | 75.71861 | 33911 ft | 488 kts | 271° |
| 2026-04-21 14:00 | 23.17953 | 75.64460 | 33912 ft | 489 kts | 271° |
| 2026-04-21 14:00 | 23.17853 | 75.57072 | 33911 ft | 490 kts | 271° |
| 2026-04-21 14:01 | 23.17747 | 75.49659 | 33914 ft | 491 kts | 271° |
| 2026-04-21 14:01 | 23.17640 | 75.42292 | 33913 ft | 490 kts | 271° |
| 2026-04-21 14:02 | 23.17529 | 75.34881 | 33913 ft | 490 kts | 271° |
| 2026-04-21 14:03 | 23.17355 | 75.23759 | 33906 ft | 490 kts | 271° |
| 2026-04-21 14:03 | 23.17234 | 75.16342 | 33902 ft | 490 kts | 271° |
| 2026-04-21 14:04 | 23.17111 | 75.08933 | 33901 ft | 490 kts | 271° |
| 2026-04-21 14:04 | 23.16984 | 75.01577 | 33899 ft | 490 kts | 271° |
| 2026-04-21 14:05 | 23.16854 | 74.94178 | 33896 ft | 490 kts | 271° |
| 2026-04-21 14:05 | 23.16720 | 74.86763 | 33893 ft | 490 kts | 271° |
| 2026-04-21 14:06 | 23.16582 | 74.79356 | 33885 ft | 489 kts | 271° |
| 2026-04-21 14:06 | 23.16442 | 74.71972 | 33883 ft | 489 kts | 271° |
| 2026-04-21 14:07 | 23.16297 | 74.64565 | 33879 ft | 489 kts | 271° |
| 2026-04-21 14:07 | 23.16150 | 74.57169 | 33867 ft | 488 kts | 271° |
| 2026-04-21 14:08 | 23.16000 | 74.49836 | 33863 ft | 488 kts | 271° |
| 2026-04-21 14:08 | 23.15846 | 74.42450 | 33856 ft | 489 kts | 271° |
| 2026-04-21 14:09 | 23.15688 | 74.35053 | 33857 ft | 490 kts | 271° |
| 2026-04-21 14:09 | 23.15351 | 74.27652 | 33852 ft | 490 kts | 270° |
| 2026-04-21 14:10 | 23.15038 | 74.20253 | 33849 ft | 490 kts | 269° |
| 2026-04-21 14:10 | 23.14669 | 74.12865 | 33841 ft | 489 kts | 270° |
| 2026-04-21 14:11 | 23.14332 | 74.05482 | 33838 ft | 490 kts | 270° |
| 2026-04-21 14:11 | 23.13970 | 73.98118 | 33832 ft | 490 kts | 270° |
| 2026-04-21 14:12 | 23.13616 | 73.90717 | 33832 ft | 491 kts | 270° |
| 2026-04-21 14:12 | 23.13251 | 73.83315 | 33828 ft | 491 kts | 270° |
| 2026-04-21 14:13 | 23.12887 | 73.75916 | 33818 ft | 490 kts | 269° |
| 2026-04-21 14:13 | 23.12517 | 73.68513 | 33812 ft | 490 kts | 269° |
| 2026-04-21 14:14 | 23.12147 | 73.61150 | 33812 ft | 491 kts | 269° |
| 2026-04-21 14:14 | 23.11770 | 73.53738 | 33808 ft | 491 kts | 269° |
| 2026-04-21 14:15 | 23.11391 | 73.46344 | 33808 ft | 490 kts | 269° |
| 2026-04-21 14:15 | 23.11008 | 73.38943 | 33801 ft | 490 kts | 269° |
| 2026-04-21 14:16 | 23.10622 | 73.31554 | 33810 ft | 491 kts | 269° |
| 2026-04-21 14:16 | 23.10231 | 73.24142 | 33808 ft | 490 kts | 269° |
| 2026-04-21 14:17 | 23.09840 | 73.16783 | 33805 ft | 491 kts | 269° |
| 2026-04-21 14:17 | 23.09443 | 73.09377 | 33796 ft | 491 kts | 269° |
| 2026-04-21 14:18 | 23.09043 | 73.01974 | 33798 ft | 491 kts | 269° |
| 2026-04-21 14:18 | 23.08638 | 72.94568 | 33787 ft | 491 kts | 269° |
| 2026-04-21 14:19 | 23.08231 | 72.87159 | 33790 ft | 491 kts | 269° |
| 2026-04-21 14:19 | 23.07819 | 72.79743 | 33795 ft | 492 kts | 269° |
| 2026-04-21 14:20 | 23.07404 | 72.72325 | 33799 ft | 492 kts | 269° |
| 2026-04-21 14:20 | 23.06988 | 72.64960 | 33802 ft | 492 kts | 269° |
| 2026-04-21 14:21 | 23.06137 | 72.57552 | 33812 ft | 495 kts | 264° |
| 2026-04-21 14:21 | 23.05088 | 72.50156 | 33810 ft | 495 kts | 264° |
| 2026-04-21 14:22 | 23.04063 | 72.42771 | 33810 ft | 495 kts | 264° |
| 2026-04-21 14:22 | 23.03018 | 72.35382 | 33806 ft | 495 kts | 264° |
| 2026-04-21 14:23 | 23.01985 | 72.28042 | 33806 ft | 495 kts | 263° |
| 2026-04-21 14:23 | 23.00935 | 72.20646 | 33810 ft | 495 kts | 263° |
| 2026-04-21 14:24 | 22.99888 | 72.13268 | 33811 ft | 495 kts | 263° |
| 2026-04-21 14:24 | 22.98832 | 72.05870 | 33811 ft | 495 kts | 263° |
| 2026-04-21 14:25 | 22.97774 | 71.98472 | 33816 ft | 496 kts | 263° |
| 2026-04-21 14:25 | 22.96713 | 71.91083 | 33816 ft | 495 kts | 263° |
| 2026-04-21 14:26 | 22.95830 | 71.84952 | 33819 ft | 496 kts | 263° |
| 2026-04-21 14:26 | 22.94587 | 71.76355 | 33822 ft | 495 kts | 263° |
| 2026-04-21 14:27 | 22.93517 | 71.68975 | 33821 ft | 495 kts | 263° |
| 2026-04-21 14:27 | 22.92445 | 71.61609 | 33826 ft | 495 kts | 263° |
| 2026-04-21 14:28 | 22.91548 | 71.55464 | 33818 ft | 494 kts | 263° |
| 2026-04-21 14:28 | 22.90469 | 71.48093 | 33818 ft | 495 kts | 263° |
| 2026-04-21 14:29 | 22.89386 | 71.40723 | 33826 ft | 495 kts | 263° |
| 2026-04-21 14:29 | 22.88299 | 71.33347 | 33824 ft | 494 kts | 262° |
| 2026-04-21 14:30 | 22.87212 | 71.25995 | 33831 ft | 494 kts | 262° |
| 2026-04-21 14:30 | 22.86127 | 71.18685 | 33832 ft | 493 kts | 262° |
| 2026-04-21 14:31 | 22.85032 | 71.11321 | 33833 ft | 494 kts | 262° |
| 2026-04-21 14:31 | 22.83935 | 71.03976 | 33834 ft | 495 kts | 262° |
| 2026-04-21 14:32 | 22.82831 | 70.96605 | 33839 ft | 495 kts | 262° |
| 2026-04-21 14:32 | 22.81723 | 70.89235 | 33841 ft | 495 kts | 262° |
| 2026-04-21 14:33 | 22.80943 | 70.81874 | 33882 ft | 493 kts | 274° |
| 2026-04-21 14:33 | 22.81404 | 70.74408 | 33854 ft | 493 kts | 275° |
| 2026-04-21 14:34 | 22.81878 | 70.67051 | 33849 ft | 494 kts | 275° |
| 2026-04-21 14:34 | 22.82343 | 70.59610 | 33853 ft | 494 kts | 275° |
| 2026-04-21 14:35 | 22.82814 | 70.52165 | 33853 ft | 494 kts | 275° |
| 2026-04-21 14:35 | 22.83273 | 70.44741 | 33866 ft | 494 kts | 275° |
| 2026-04-21 14:36 | 22.83734 | 70.37307 | 33851 ft | 494 kts | 275° |
| 2026-04-21 14:36 | 22.84186 | 70.29923 | 33849 ft | 493 kts | 275° |
| 2026-04-21 14:37 | 22.84638 | 70.22500 | 33850 ft | 493 kts | 275° |
| 2026-04-21 14:37 | 22.85087 | 70.15075 | 33848 ft | 492 kts | 275° |
| 2026-04-21 14:38 | 22.85529 | 70.07676 | 33849 ft | 491 kts | 275° |
| 2026-04-21 14:38 | 22.85966 | 70.00337 | 33851 ft | 491 kts | 275° |
| 2026-04-21 14:39 | 22.86401 | 69.92953 | 33848 ft | 491 kts | 275° |
| 2026-04-21 14:39 | 22.86834 | 69.85574 | 33846 ft | 490 kts | 275° |
| 2026-04-21 14:40 | 22.87262 | 69.78184 | 33847 ft | 490 kts | 274° |
| 2026-04-21 14:40 | 22.87688 | 69.70801 | 33847 ft | 490 kts | 275° |
| 2026-04-21 14:41 | 22.88153 | 69.63469 | 33851 ft | 490 kts | 275° |
| 2026-04-21 14:41 | 22.88639 | 69.56090 | 33852 ft | 490 kts | 275° |
| 2026-04-21 14:42 | 22.89102 | 69.48705 | 33852 ft | 490 kts | 275° |
| 2026-04-21 14:42 | 22.89576 | 69.41334 | 33852 ft | 490 kts | 275° |
| 2026-04-21 14:43 | 22.90036 | 69.33958 | 33853 ft | 490 kts | 275° |
| 2026-04-21 14:43 | 22.90501 | 69.26563 | 33854 ft | 490 kts | 275° |
| 2026-04-21 14:44 | 22.90958 | 69.19183 | 33851 ft | 490 kts | 274° |
| 2026-04-21 14:44 | 22.91410 | 69.11845 | 33849 ft | 490 kts | 274° |
| 2026-04-21 14:45 | 22.91860 | 69.04486 | 33853 ft | 490 kts | 274° |
| 2026-04-21 14:45 | 22.92306 | 68.97114 | 33855 ft | 489 kts | 274° |
| 2026-04-21 14:46 | 22.92749 | 68.89760 | 33854 ft | 489 kts | 274° |
| 2026-04-21 14:46 | 22.93189 | 68.82391 | 33854 ft | 489 kts | 274° |
| 2026-04-21 14:47 | 22.93625 | 68.75035 | 33853 ft | 489 kts | 274° |
| 2026-04-21 14:47 | 22.94058 | 68.67663 | 33863 ft | 489 kts | 274° |
| 2026-04-21 14:48 | 22.94485 | 68.60355 | 33861 ft | 489 kts | 274° |
| 2026-04-21 14:48 | 22.94910 | 68.52996 | 33869 ft | 488 kts | 274° |
| 2026-04-21 14:49 | 22.95333 | 68.45637 | 33859 ft | 489 kts | 274° |
| 2026-04-21 14:49 | 22.95751 | 68.38269 | 33863 ft | 489 kts | 272° |
| 2026-04-21 14:50 | 22.95779 | 68.32131 | 33867 ft | 489 kts | 270° |
| 2026-04-21 14:50 | 22.95799 | 68.23537 | 33873 ft | 489 kts | 270° |
| 2026-04-21 14:51 | 22.95795 | 68.16177 | 33868 ft | 489 kts | 270° |
| 2026-04-21 14:51 | 22.95799 | 68.08784 | 33868 ft | 489 kts | 270° |
| 2026-04-21 14:52 | 22.95794 | 68.01405 | 33871 ft | 489 kts | 270° |
| 2026-04-21 14:52 | 22.95788 | 67.94043 | 33870 ft | 489 kts | 270° |
| 2026-04-21 14:53 | 22.95777 | 67.86664 | 33867 ft | 489 kts | 270° |
| 2026-04-21 14:53 | 22.95799 | 67.79340 | 33873 ft | 488 kts | 270° |
| 2026-04-21 14:54 | 22.95815 | 67.71964 | 33872 ft | 488 kts | 270° |
| 2026-04-21 14:54 | 22.95825 | 67.64586 | 33867 ft | 488 kts | 270° |
| 2026-04-21 14:55 | 22.95836 | 67.57221 | 33875 ft | 488 kts | 270° |
| 2026-04-21 14:55 | 22.95840 | 67.49862 | 33871 ft | 488 kts | 270° |
| 2026-04-21 14:56 | 22.95843 | 67.42556 | 33871 ft | 487 kts | 270° |
| 2026-04-21 14:56 | 22.95841 | 67.35168 | 33871 ft | 486 kts | 270° |
| 2026-04-21 14:57 | 22.95837 | 67.27877 | 33867 ft | 486 kts | 270° |
| 2026-04-21 14:57 | 22.95829 | 67.20540 | 33865 ft | 486 kts | 270° |
| 2026-04-21 14:58 | 22.95817 | 67.13189 | 33854 ft | 486 kts | 270° |
| 2026-04-21 14:58 | 22.95802 | 67.05844 | 33864 ft | 486 kts | 270° |
| 2026-04-21 14:59 | 22.95784 | 66.98544 | 33857 ft | 486 kts | 270° |
| 2026-04-21 14:59 | 22.95795 | 66.91216 | 33864 ft | 486 kts | 271° |
| 2026-04-21 15:00 | 22.95867 | 66.83870 | 33866 ft | 486 kts | 270° |
| 2026-04-21 15:00 | 22.95892 | 66.76547 | 33863 ft | 486 kts | 270° |
| 2026-04-21 15:01 | 22.95940 | 66.69219 | 33869 ft | 486 kts | 270° |
| 2026-04-21 15:01 | 22.95969 | 66.61882 | 33857 ft | 486 kts | 270° |
| 2026-04-21 15:02 | 22.96004 | 66.54543 | 33869 ft | 486 kts | 270° |
| 2026-04-21 15:02 | 22.96030 | 66.47246 | 33861 ft | 486 kts | 270° |
| 2026-04-21 15:03 | 22.96056 | 66.39920 | 33856 ft | 485 kts | 270° |
| 2026-04-21 15:03 | 22.96076 | 66.32576 | 33867 ft | 485 kts | 270° |
| 2026-04-21 15:04 | 22.96094 | 66.25255 | 33866 ft | 486 kts | 270° |
| 2026-04-21 15:04 | 22.96109 | 66.17921 | 33868 ft | 486 kts | 269° |
| 2026-04-21 15:05 | 22.96120 | 66.10577 | 33855 ft | 487 kts | 269° |
| 2026-04-21 15:05 | 22.96131 | 65.99571 | 33875 ft | 486 kts | 269° |
| 2026-04-21 15:06 | 22.96134 | 65.92212 | 33873 ft | 486 kts | 269° |
| 2026-04-21 15:06 | 22.96133 | 65.84942 | 33872 ft | 485 kts | 269° |
| 2026-04-21 15:07 | 22.96131 | 65.81263 | 34086 ft | 488 kts | 269° |
| 2026-04-21 15:07 | 22.96129 | 65.77601 | 34643 ft | 484 kts | 269° |
| 2026-04-21 15:07 | 22.96126 | 65.73949 | 35151 ft | 482 kts | 269° |
| 2026-04-21 15:07 | 22.96122 | 65.70310 | 35616 ft | 480 kts | 269° |
| 2026-04-21 15:08 | 22.96117 | 65.66684 | 35868 ft | 483 kts | 269° |
| 2026-04-21 15:08 | 22.96111 | 65.63037 | 35855 ft | 483 kts | 269° |
| 2026-04-21 15:08 | 22.96098 | 65.55801 | 35847 ft | 478 kts | 269° |
| 2026-04-21 15:09 | 22.96081 | 65.48632 | 35859 ft | 477 kts | 269° |
| 2026-04-21 15:09 | 22.96060 | 65.41430 | 35866 ft | 478 kts | 269° |
| 2026-04-21 15:10 | 22.96040 | 65.35184 | 35854 ft | 477 kts | 269° |
| 2026-04-21 15:10 | 22.96014 | 65.28014 | 35865 ft | 477 kts | 269° |
| 2026-04-21 15:11 | 22.95984 | 65.20803 | 35866 ft | 476 kts | 269° |
| 2026-04-21 15:11 | 22.95952 | 65.13616 | 35861 ft | 476 kts | 269° |
| 2026-04-21 15:12 | 22.95916 | 65.06433 | 35860 ft | 475 kts | 269° |
| 2026-04-21 15:12 | 22.95877 | 64.99268 | 35867 ft | 475 kts | 269° |
| 2026-04-21 15:13 | 22.95835 | 64.92134 | 35858 ft | 476 kts | 269° |
| 2026-04-21 15:13 | 22.95789 | 64.84952 | 35867 ft | 476 kts | 269° |
| 2026-04-21 15:14 | 22.96372 | 64.77794 | 35868 ft | 477 kts | 276° |
| 2026-04-21 15:14 | 22.97133 | 64.70637 | 35872 ft | 477 kts | 276° |
| 2026-04-21 15:15 | 22.97765 | 64.64678 | 35867 ft | 478 kts | 276° |
| 2026-04-21 15:15 | 22.98524 | 64.57508 | 35871 ft | 478 kts | 276° |
| 2026-04-21 15:16 | 22.99278 | 64.50339 | 35876 ft | 478 kts | 276° |
| 2026-04-21 15:16 | 23.00032 | 64.43149 | 35871 ft | 479 kts | 276° |
| 2026-04-21 15:17 | 23.00783 | 64.35946 | 35874 ft | 479 kts | 276° |
| 2026-04-21 15:17 | 23.01530 | 64.28754 | 35869 ft | 479 kts | 276° |
| 2026-04-21 15:18 | 23.02274 | 64.21556 | 35872 ft | 480 kts | 276° |
| 2026-04-21 15:18 | 23.03012 | 64.14391 | 35865 ft | 480 kts | 276° |
| 2026-04-21 15:19 | 23.03750 | 64.07182 | 35872 ft | 480 kts | 276° |
| 2026-04-21 15:19 | 23.04486 | 63.99971 | 35866 ft | 481 kts | 276° |
| 2026-04-21 15:20 | 23.05219 | 63.92753 | 35869 ft | 481 kts | 276° |
| 2026-04-21 15:20 | 23.05946 | 63.85557 | 35868 ft | 482 kts | 276° |
| 2026-04-21 15:21 | 23.06710 | 63.78309 | 35868 ft | 482 kts | 276° |
| 2026-04-21 15:21 | 23.07464 | 63.71052 | 35870 ft | 483 kts | 276° |
| 2026-04-21 15:22 | 23.08216 | 63.63803 | 35871 ft | 483 kts | 276° |
| 2026-04-21 15:22 | 23.08965 | 63.56554 | 35865 ft | 483 kts | 276° |
| 2026-04-21 15:23 | 23.09705 | 63.49340 | 35860 ft | 483 kts | 276° |
| 2026-04-21 15:23 | 23.10449 | 63.42082 | 35868 ft | 484 kts | 276° |
| 2026-04-21 15:24 | 23.11188 | 63.34814 | 35873 ft | 484 kts | 276° |
| 2026-04-21 15:24 | 23.11925 | 63.27546 | 35869 ft | 484 kts | 276° |
| 2026-04-21 15:25 | 23.12658 | 63.20277 | 35869 ft | 483 kts | 276° |
| 2026-04-21 15:25 | 23.13387 | 63.13016 | 35868 ft | 483 kts | 276° |
| 2026-04-21 15:26 | 23.14109 | 63.05796 | 35862 ft | 483 kts | 276° |
| 2026-04-21 15:26 | 23.14829 | 62.98558 | 35861 ft | 482 kts | 276° |
| 2026-04-21 15:27 | 23.15548 | 62.91292 | 35860 ft | 482 kts | 276° |
| 2026-04-21 15:27 | 23.16262 | 62.84054 | 35863 ft | 482 kts | 276° |
| 2026-04-21 15:28 | 23.16969 | 62.76838 | 35861 ft | 482 kts | 276° |
| 2026-04-21 15:28 | 23.17679 | 62.69565 | 35859 ft | 481 kts | 277° |
| 2026-04-21 15:29 | 23.18378 | 62.62373 | 35864 ft | 481 kts | 277° |
| 2026-04-21 15:29 | 23.19077 | 62.55147 | 35854 ft | 481 kts | 277° |
| 2026-04-21 15:30 | 23.19772 | 62.47912 | 35863 ft | 480 kts | 277° |
| 2026-04-21 15:30 | 23.20464 | 62.40690 | 35860 ft | 480 kts | 277° |
| 2026-04-21 15:31 | 23.21153 | 62.33459 | 35853 ft | 480 kts | 277° |
| 2026-04-21 15:31 | 23.21839 | 62.26227 | 35857 ft | 481 kts | 277° |
| 2026-04-21 15:32 | 23.22522 | 62.18988 | 35863 ft | 482 kts | 277° |
| 2026-04-21 15:32 | 23.23198 | 62.11782 | 35856 ft | 481 kts | 277° |
| 2026-04-21 15:33 | 23.23876 | 62.04524 | 35859 ft | 481 kts | 277° |
| 2026-04-21 15:33 | 23.24550 | 61.97277 | 35852 ft | 481 kts | 277° |
| 2026-04-21 15:34 | 23.25216 | 61.90077 | 35856 ft | 481 kts | 277° |
| 2026-04-21 15:34 | 23.25880 | 61.82859 | 35855 ft | 481 kts | 277° |
| 2026-04-21 15:35 | 23.26542 | 61.75626 | 35854 ft | 480 kts | 277° |
| 2026-04-21 15:35 | 23.27202 | 61.68376 | 35853 ft | 481 kts | 277° |
| 2026-04-21 15:36 | 23.27856 | 61.61158 | 35841 ft | 480 kts | 277° |
| 2026-04-21 15:36 | 23.28507 | 61.53934 | 35840 ft | 480 kts | 277° |
| 2026-04-21 15:37 | 23.29157 | 61.46691 | 35833 ft | 480 kts | 277° |
| 2026-04-21 15:37 | 23.29797 | 61.39514 | 35834 ft | 480 kts | 277° |
| 2026-04-21 15:38 | 23.30439 | 61.32286 | 35844 ft | 481 kts | 277° |
| 2026-04-21 15:38 | 23.31078 | 61.25044 | 35842 ft | 481 kts | 277° |
| 2026-04-21 15:39 | 23.31734 | 61.17776 | 35839 ft | 480 kts | 280° |
| 2026-04-21 15:39 | 23.32650 | 61.10596 | 35838 ft | 480 kts | 279° |
| 2026-04-21 15:40 | 23.33544 | 61.03388 | 35830 ft | 480 kts | 279° |
| 2026-04-21 15:40 | 23.34448 | 60.96238 | 35831 ft | 479 kts | 279° |
| 2026-04-21 15:41 | 23.35339 | 60.89043 | 35830 ft | 480 kts | 279° |
| 2026-04-21 15:41 | 23.36237 | 60.81845 | 35819 ft | 480 kts | 279° |
| 2026-04-21 15:42 | 23.37126 | 60.74638 | 35822 ft | 480 kts | 279° |
| 2026-04-21 15:42 | 23.38016 | 60.67434 | 35827 ft | 479 kts | 280° |
| 2026-04-21 15:43 | 23.39845 | 60.60561 | 35840 ft | 476 kts | 293° |
| 2026-04-21 15:43 | 23.42303 | 60.53861 | 35835 ft | 476 kts | 293° |
| 2026-04-21 15:44 | 23.44755 | 60.47150 | 35837 ft | 476 kts | 293° |
| 2026-04-21 15:44 | 23.47199 | 60.40457 | 35832 ft | 475 kts | 293° |
| 2026-04-21 15:45 | 23.49625 | 60.33801 | 35832 ft | 475 kts | 293° |
| 2026-04-21 15:45 | 23.52082 | 60.27050 | 35830 ft | 476 kts | 293° |
| 2026-04-21 15:46 | 23.54504 | 60.20387 | 35834 ft | 475 kts | 293° |
| 2026-04-21 15:46 | 23.56935 | 60.13688 | 35828 ft | 475 kts | 293° |
| 2026-04-21 15:47 | 23.59361 | 60.06991 | 35832 ft | 475 kts | 293° |
| 2026-04-21 15:47 | 23.61787 | 60.00285 | 35827 ft | 474 kts | 293° |
| 2026-04-21 15:48 | 23.64187 | 59.93638 | 35828 ft | 473 kts | 293° |
| 2026-04-21 15:48 | 23.66593 | 59.86968 | 35829 ft | 472 kts | 293° |
| 2026-04-21 15:49 | 23.68986 | 59.80320 | 35830 ft | 471 kts | 293° |
| 2026-04-21 15:49 | 23.71393 | 59.73625 | 35829 ft | 471 kts | 292° |
| 2026-04-21 15:50 | 23.73780 | 59.66974 | 35830 ft | 470 kts | 292° |
| 2026-04-21 15:50 | 23.76148 | 59.60367 | 35826 ft | 470 kts | 292° |
| 2026-04-21 15:51 | 23.78522 | 59.53731 | 35817 ft | 469 kts | 292° |
| 2026-04-21 15:51 | 23.80891 | 59.47102 | 35813 ft | 468 kts | 292° |
| 2026-04-21 15:52 | 23.83258 | 59.40467 | 35815 ft | 468 kts | 292° |
| 2026-04-21 15:52 | 23.85617 | 59.33842 | 35820 ft | 467 kts | 292° |
| 2026-04-21 15:53 | 23.87970 | 59.27224 | 35821 ft | 466 kts | 292° |
| 2026-04-21 15:53 | 23.90299 | 59.20664 | 35823 ft | 466 kts | 292° |
| 2026-04-21 15:54 | 23.92638 | 59.14065 | 35823 ft | 466 kts | 291° |
| 2026-04-21 15:54 | 23.94791 | 59.07378 | 35817 ft | 465 kts | 290° |
| 2026-04-21 15:55 | 23.96953 | 59.00703 | 35821 ft | 464 kts | 290° |
| 2026-04-21 15:55 | 23.99064 | 58.94081 | 35820 ft | 465 kts | 290° |
| 2026-04-21 15:56 | 24.01211 | 58.87399 | 35825 ft | 464 kts | 290° |
| 2026-04-21 15:56 | 24.03336 | 58.80732 | 35828 ft | 464 kts | 290° |
| 2026-04-21 15:57 | 24.05466 | 58.74063 | 35831 ft | 465 kts | 290° |
| 2026-04-21 15:57 | 24.07590 | 58.67388 | 35831 ft | 464 kts | 290° |
| 2026-04-21 15:58 | 24.09712 | 58.60720 | 35828 ft | 463 kts | 290° |
| 2026-04-21 15:58 | 24.11812 | 58.54101 | 35826 ft | 462 kts | 290° |
| 2026-04-21 15:59 | 24.13916 | 58.47460 | 35826 ft | 462 kts | 290° |
| 2026-04-21 15:59 | 24.16018 | 58.40814 | 35827 ft | 461 kts | 290° |
| 2026-04-21 16:00 | 24.18116 | 58.34170 | 35824 ft | 461 kts | 289° |
| 2026-04-21 16:00 | 24.20209 | 58.27530 | 35827 ft | 461 kts | 289° |
| 2026-04-21 16:01 | 24.22299 | 58.20889 | 35827 ft | 461 kts | 289° |
| 2026-04-21 16:01 | 24.24385 | 58.14248 | 35832 ft | 460 kts | 289° |
| 2026-04-21 16:02 | 24.26453 | 58.07655 | 35829 ft | 459 kts | 289° |
| 2026-04-21 16:02 | 24.28181 | 58.02137 | 35831 ft | 459 kts | 289° |
| 2026-04-21 16:03 | 24.30600 | 57.94399 | 35832 ft | 458 kts | 289° |
| 2026-04-21 16:03 | 24.32650 | 57.87828 | 35827 ft | 457 kts | 289° |
| 2026-04-21 16:04 | 24.34366 | 57.82319 | 35826 ft | 455 kts | 289° |
| 2026-04-21 16:04 | 24.36409 | 57.75752 | 35829 ft | 455 kts | 289° |
| 2026-04-21 16:05 | 24.38440 | 57.69210 | 35830 ft | 456 kts | 289° |
| 2026-04-21 16:05 | 24.40486 | 57.62610 | 35834 ft | 456 kts | 289° |
| 2026-04-21 16:06 | 24.42522 | 57.56031 | 35837 ft | 456 kts | 289° |
| 2026-04-21 16:06 | 24.44562 | 57.49427 | 35837 ft | 456 kts | 289° |
| 2026-04-21 16:07 | 24.46594 | 57.42839 | 35841 ft | 456 kts | 289° |
| 2026-04-21 16:07 | 24.48626 | 57.36236 | 35842 ft | 457 kts | 289° |
| 2026-04-21 16:08 | 24.51665 | 57.26345 | 35838 ft | 457 kts | 289° |
| 2026-04-21 16:09 | 24.53693 | 57.19729 | 35683 ft | 453 kts | 289° |
| 2026-04-21 16:09 | 24.54703 | 57.16433 | 34676 ft | 462 kts | 288° |
| 2026-04-21 16:09 | 24.55724 | 57.13092 | 34156 ft | 460 kts | 288° |
| 2026-04-21 16:09 | 24.56744 | 57.09754 | 33481 ft | 464 kts | 287° |
| 2026-04-21 16:10 | 24.57779 | 57.06363 | 32728 ft | 470 kts | 287° |
| 2026-04-21 16:10 | 24.58822 | 57.02943 | 32058 ft | 475 kts | 287° |
| 2026-04-21 16:10 | 24.59859 | 56.99542 | 31371 ft | 477 kts | 287° |
| 2026-04-21 16:10 | 24.60929 | 56.96027 | 30646 ft | 477 kts | 287° |
| 2026-04-21 16:11 | 24.61967 | 56.92615 | 29941 ft | 476 kts | 286° |
| 2026-04-21 16:11 | 24.63015 | 56.89167 | 29183 ft | 474 kts | 286° |
| 2026-04-21 16:11 | 24.64051 | 56.85744 | 28458 ft | 470 kts | 285° |
| 2026-04-21 16:11 | 24.64766 | 56.82274 | 27747 ft | 464 kts | 277° |
| 2026-04-21 16:12 | 24.65254 | 56.78762 | 27025 ft | 461 kts | 277° |
| 2026-04-21 16:12 | 24.65730 | 56.75289 | 26297 ft | 457 kts | 277° |
| 2026-04-21 16:12 | 24.66203 | 56.71844 | 25590 ft | 454 kts | 277° |
| 2026-04-21 16:12 | 24.66677 | 56.68424 | 24879 ft | 451 kts | 277° |
| 2026-04-21 16:13 | 24.67146 | 56.65029 | 24167 ft | 448 kts | 277° |
| 2026-04-21 16:13 | 24.67610 | 56.61648 | 23428 ft | 445 kts | 277° |
| 2026-04-21 16:13 | 24.68064 | 56.58333 | 22694 ft | 441 kts | 278° |
| 2026-04-21 16:13 | 24.68519 | 56.55013 | 21982 ft | 435 kts | 278° |
| 2026-04-21 16:14 | 24.68967 | 56.51748 | 21267 ft | 429 kts | 278° |
| 2026-04-21 16:14 | 24.69407 | 56.48512 | 20567 ft | 424 kts | 278° |
| 2026-04-21 16:14 | 24.69840 | 56.45326 | 19873 ft | 419 kts | 278° |
| 2026-04-21 16:14 | 24.70268 | 56.42173 | 19178 ft | 414 kts | 278° |
| 2026-04-21 16:15 | 24.70691 | 56.39057 | 18483 ft | 410 kts | 278° |
| 2026-04-21 16:15 | 24.71109 | 56.35972 | 17759 ft | 406 kts | 278° |
| 2026-04-21 16:15 | 24.71523 | 56.32918 | 17070 ft | 399 kts | 279° |
| 2026-04-21 16:15 | 24.72199 | 56.29999 | 16390 ft | 393 kts | 290° |
| 2026-04-21 16:16 | 24.73377 | 56.27312 | 15715 ft | 388 kts | 299° |
| 2026-04-21 16:16 | 24.74703 | 56.24739 | 15100 ft | 383 kts | 298° |
| 2026-04-21 16:16 | 24.76005 | 56.22215 | 14555 ft | 374 kts | 298° |
| 2026-04-21 16:16 | 24.77266 | 56.19771 | 13915 ft | 371 kts | 298° |
| 2026-04-21 16:17 | 24.78532 | 56.17311 | 13211 ft | 363 kts | 298° |
| 2026-04-21 16:17 | 24.79752 | 56.14938 | 12628 ft | 348 kts | 298° |
| 2026-04-21 16:17 | 24.80901 | 56.12705 | 12460 ft | 322 kts | 298° |
| 2026-04-21 16:17 | 24.81962 | 56.10642 | 12320 ft | 298 kts | 298° |
| 2026-04-21 16:18 | 24.82946 | 56.08727 | 12182 ft | 278 kts | 298° |
| 2026-04-21 16:18 | 24.83872 | 56.06923 | 12071 ft | 265 kts | 298° |
| 2026-04-21 16:18 | 24.84774 | 56.05165 | 12024 ft | 264 kts | 298° |
| 2026-04-21 16:18 | 24.85743 | 56.03412 | 11996 ft | 272 kts | 304° |
| 2026-04-21 16:19 | 24.86851 | 56.01725 | 11724 ft | 274 kts | 304° |
| 2026-04-21 16:19 | 24.87955 | 55.99996 | 11474 ft | 272 kts | 302° |
| 2026-04-21 16:19 | 24.88683 | 55.98110 | 11271 ft | 267 kts | 278° |
| 2026-04-21 16:19 | 24.88652 | 55.96103 | 11066 ft | 268 kts | 256° |
| 2026-04-21 16:20 | 24.87882 | 55.94234 | 10837 ft | 269 kts | 238° |
| 2026-04-21 16:20 | 24.86844 | 55.92524 | 10613 ft | 270 kts | 237° |
| 2026-04-21 16:20 | 24.86094 | 55.90707 | 10599 ft | 257 kts | 260° |
| 2026-04-21 16:20 | 24.85827 | 55.88715 | 10636 ft | 267 kts | 264° |
| 2026-04-21 16:21 | 24.85631 | 55.86681 | 10660 ft | 268 kts | 264° |
| 2026-04-21 16:21 | 24.85350 | 55.84662 | 10668 ft | 261 kts | 260° |
| 2026-04-21 16:21 | 24.85002 | 55.82717 | 10661 ft | 263 kts | 260° |
| 2026-04-21 16:21 | 24.84656 | 55.80708 | 10674 ft | 267 kts | 261° |
| 2026-04-21 16:22 | 24.84329 | 55.78686 | 10685 ft | 269 kts | 261° |
| 2026-04-21 16:22 | 24.84001 | 55.76645 | 10507 ft | 271 kts | 261° |
| 2026-04-21 16:22 | 24.83670 | 55.74639 | 10252 ft | 269 kts | 261° |
| 2026-04-21 16:22 | 24.83334 | 55.72602 | 9962 ft | 266 kts | 261° |
| 2026-04-21 16:23 | 24.83006 | 55.70609 | 9679 ft | 264 kts | 261° |
| 2026-04-21 16:23 | 24.82684 | 55.68650 | 9380 ft | 263 kts | 261° |
| 2026-04-21 16:23 | 24.82362 | 55.66691 | 9061 ft | 258 kts | 261° |
| 2026-04-21 16:23 | 24.82045 | 55.64771 | 8743 ft | 253 kts | 261° |
| 2026-04-21 16:24 | 24.81732 | 55.62876 | 8422 ft | 249 kts | 261° |
| 2026-04-21 16:24 | 24.81423 | 55.61002 | 8113 ft | 245 kts | 261° |
| 2026-04-21 16:24 | 24.81124 | 55.59199 | 7811 ft | 234 kts | 261° |
| 2026-04-21 16:24 | 24.80835 | 55.57444 | 7528 ft | 233 kts | 261° |
| 2026-04-21 16:25 | 24.80547 | 55.55705 | 7236 ft | 234 kts | 261° |
| 2026-04-21 16:25 | 24.80257 | 55.53951 | 6955 ft | 234 kts | 261° |
| 2026-04-21 16:25 | 24.79968 | 55.52212 | 6676 ft | 225 kts | 261° |
| 2026-04-21 16:25 | 24.79694 | 55.50568 | 6393 ft | 213 kts | 261° |
| 2026-04-21 16:26 | 24.79432 | 55.48981 | 6079 ft | 210 kts | 261° |
| 2026-04-21 16:26 | 24.79168 | 55.47393 | 5769 ft | 209 kts | 261° |
| 2026-04-21 16:26 | 24.78906 | 55.45809 | 5460 ft | 209 kts | 261° |
| 2026-04-21 16:26 | 24.78644 | 55.44236 | 5162 ft | 207 kts | 261° |
| 2026-04-21 16:27 | 24.78389 | 55.42712 | 4888 ft | 200 kts | 262° |
| 2026-04-21 16:27 | 24.78145 | 55.41243 | 4588 ft | 195 kts | 261° |
| 2026-04-21 16:27 | 24.77900 | 55.39773 | 4268 ft | 190 kts | 262° |
| 2026-04-21 16:27 | 24.77689 | 55.38381 | 3974 ft | 183 kts | 269° |
| 2026-04-21 16:28 | 24.78045 | 55.37080 | 3548 ft | 178 kts | 309° |
| 2026-04-21 16:28 | 24.78683 | 55.35949 | 3293 ft | 172 kts | 304° |
| 2026-04-21 16:28 | 24.79323 | 55.34831 | 3068 ft | 174 kts | 302° |
| 2026-04-21 16:28 | 24.79945 | 55.33696 | 2835 ft | 173 kts | 304° |
| 2026-04-21 16:29 | 24.80563 | 55.32572 | 2716 ft | 171 kts | 304° |
| 2026-04-21 16:29 | 24.81179 | 55.31453 | 2591 ft | 170 kts | 305° |
| 2026-04-21 16:29 | 24.81797 | 55.30333 | 2457 ft | 172 kts | 304° |
| 2026-04-21 16:29 | 24.82417 | 55.29210 | 2310 ft | 171 kts | 304° |
| 2026-04-21 16:30 | 24.83034 | 55.28104 | 2145 ft | 169 kts | 305° |
| 2026-04-21 16:30 | 24.83643 | 55.27000 | 1947 ft | 166 kts | 305° |
| 2026-04-21 16:30 | 24.84225 | 55.25940 | 1775 ft | 160 kts | 305° |
| 2026-04-21 16:30 | 24.84806 | 55.24888 | 1625 ft | 161 kts | 305° |
| 2026-04-21 16:31 | 24.85386 | 55.23838 | 1404 ft | 160 kts | 304° |
| 2026-04-21 16:31 | 24.85963 | 55.22794 | 1209 ft | 159 kts | 304° |
| 2026-04-21 16:31 | 24.86542 | 55.21748 | 1006 ft | 161 kts | 304° |
| 2026-04-21 16:31 | 24.87119 | 55.20705 | 794 ft | 159 kts | 303° |
| 2026-04-21 16:32 | 24.87698 | 55.19665 | 619 ft | 158 kts | 304° |
| 2026-04-21 16:32 | 24.88265 | 55.18636 | 376 ft | 155 kts | 303° |
| 2026-04-21 16:32 | 24.88826 | 55.17616 | 198 ft | 153 kts | 303° |
| 2026-04-21 16:32 | 24.89297 | 55.16767 | 163 ft | 102 kts | 301° |
| 2026-04-21 16:33 | 24.89576 | 55.16267 | 165 ft | 55 kts | 302° |
| 2026-04-21 16:33 | 24.89721 | 55.16001 | 164 ft | 32 kts | 296° |
| 2026-04-21 16:33 | 24.89779 | 55.15791 | 164 ft | 26 kts | 277° |
| 2026-04-21 16:33 | 24.89786 | 55.15615 | 164 ft | 20 kts | 272° |
| 2026-04-21 16:34 | 24.89789 | 55.15478 | 165 ft | 13 kts | 279° |
| 2026-04-21 16:34 | 24.89813 | 55.15421 | 165 ft | 6 kts | 303° |
| 2026-04-21 16:34 | 24.89832 | 55.15389 | 165 ft | 4 kts | 303° |
| 2026-04-21 16:34 | 24.89847 | 55.15364 | 165 ft | 4 kts | 303° |
| 2026-04-21 16:35 | 24.89861 | 55.15338 | 165 ft | 4 kts | 302° |
| 2026-04-21 16:35 | 24.89879 | 55.15306 | 165 ft | 5 kts | 300° |
| 2026-04-21 16:35 | 24.89909 | 55.15252 | 165 ft | 12 kts | 301° |
| 2026-04-21 16:35 | 24.89963 | 55.15153 | 166 ft | 18 kts | 301° |
| 2026-04-21 16:36 | 24.89969 | 55.15037 | 165 ft | 12 kts | 221° |
| 2026-04-21 16:36 | 24.89875 | 55.14978 | 165 ft | 19 kts | 210° |
| 2026-04-21 16:36 | 24.89742 | 55.14890 | 165 ft | 25 kts | 212° |
| 2026-04-21 16:36 | 24.89598 | 55.14792 | 166 ft | 24 kts | 211° |
| 2026-04-21 16:37 | 24.89460 | 55.14699 | 166 ft | 23 kts | 211° |
| 2026-04-21 16:37 | 24.89341 | 55.14623 | 167 ft | 10 kts | 195° |
| 2026-04-21 16:37 | 24.89319 | 55.14630 | 167 ft | 1 kts | 156° |
| 2026-04-21 16:37 | 24.89316 | 55.14635 | 167 ft | 1 kts | 137° |
| 2026-04-21 16:38 | 24.89301 | 55.14663 | 167 ft | 6 kts | 120° |
| 2026-04-21 16:38 | 24.89285 | 55.14692 | 167 ft | 3 kts | 120° |
| 2026-04-21 16:38 | 24.89279 | 55.14703 | 167 ft | 1 kts | 121° |
| 2026-04-21 16:38 | 24.89276 | 55.14708 | 167 ft | 1 kts | 121° |